Return to Metar
METAR CYNL 241600Z AUTO 32006KT 9SM OVC007 02/01 A2959 RMK AO1 SLP038
SPECI CYNL 241535Z AUTO 31007KT 8SM BKN008 BKN013 OVC016 02/00 A2958 RMK AO1 PRESRR SLP036
SPECI CYNL 241524Z AUTO 31007KT 8SM SCT007 BKN010 BKN013 02/01 A2958 RMK AO1 PRESRR SLP036
SPECI CYNL 241519Z AUTO 32005KT 4SM SCT006 BKN009 BKN017 02/01 A2958 RMK AO1 PRESRR SLP035
SPECI CYNL 241506Z AUTO 32007KT 3SM FEW007 SCT009 BKN014 02/01 A2958 RMK AO1 PRESRR SLP035
SPECI CYNL 241505Z AUTO 32007KT 2SM FEW007 SCT009 BKN013 02/01 A2958 RMK AO1 PRESRR SLP035
SPECI CYNL 241504Z AUTO 32007KT 1 3/4SM SCT007 BKN013 BKN016 02/01 A2958 RMK AO1 PRESRR SLP035
SPECI CYNL 241502Z AUTO 32005KT 2 1/2SM SCT007 BKN010 BKN016 02/01 A2958 RMK AO1 PRESRR SLP035
METAR CYNL 241500Z AUTO 33007KT 4SM SCT008 BKN011 BKN016 02/01 A2958 RMK AO1 PRESRR SLP034
SPECI CYNL 241442Z AUTO 33005KT 4SM SCT008 BKN012 OVC020 02/01 A2958 RMK AO1 PRESRR SLP034
SPECI CYNL 241440Z AUTO 32005KT 4SM BKN008 OVC020 02/01 A2958 RMK AO1 PRESRR SLP034
SPECI CYNL 241438Z AUTO 32008KT 5SM SCT008 BKN012 OVC020 02/01 A2958 RMK AO1 PRESRR SLP034
SPECI CYNL 241437Z AUTO 32007KT 7SM BKN008 OVC020 02/01 A2958 RMK AO1 PRESRR SLP033
SPECI CYNL 241421Z AUTO 35009KT 9SM SCT004 BKN014 OVC020 02/01 A2956 RMK AO1 PRESRR SLP028
SPECI CYNL 241414Z AUTO 35009G17KT 7SM SCT003 BKN007 OVC013 02/01 A2956 RMK AO1 PRESRR SLP027
SPECI CYNL 241410Z AUTO 34010G17KT 3SM BKN004 OVC009 02/01 A2956 RMK AO1 PRESRR SLP027
SPECI CYNL 241408Z AUTO 34010G17KT 2SM BKN004 OVC009 02/01 A2956 RMK AO1 PRESRR SLP027
SPECI CYNL 241402Z AUTO 33009G16KT 1 3/4SM BKN003 OVC006 02/01 A2956 RMK AO1 PRESRR SLP026
METAR CYNL 241400Z AUTO 33009G16KT 2 1/2SM BKN003 BKN005 OVC007 02/01 A2955 RMK AO1 PRESRR SLP026
SPECI CYNL 241355Z AUTO 32007KT 2SM BKN003 OVC007 02/02 A2955 RMK AO1 SLP024
SPECI CYNL 241349Z AUTO 32008KT 1 3/4SM BKN003 OVC007 02/02 A2955 RMK AO1 SLP023
SPECI CYNL 241347Z AUTO 32006KT 2 1/2SM BKN004 OVC007 02/02 A2955 RMK AO1 SLP023
SPECI CYNL 241346Z AUTO 32006KT 3SM BKN004 OVC007 02/02 A2955 RMK AO1 SLP022
SPECI CYNL 241345Z AUTO 32008KT 4SM SCT004 BKN005 OVC007 02/02 A2955 RMK AO1 SLP022
SPECI CYNL 241344Z AUTO 32008KT 4SM BKN004 OVC007 02/01 A2955 RMK AO1 SLP022
SPECI CYNL 241336Z AUTO 32009KT 9SM SCT004 BKN005 OVC007 02/01 A2954 RMK AO1 SLP020
SPECI CYNL 241335Z AUTO 32010KT 9SM BKN004 OVC007 02/01 A2954 RMK AO1 SLP020
SPECI CYNL 241334Z AUTO 32010KT 9SM SCT004 OVC007 02/01 A2954 RMK AO1 SLP020
SPECI CYNL 241316Z AUTO 33007KT 9SM OVC004 03/02 A2953 RMK AO1 SLP017
METAR CYNL 241300Z AUTO 32007KT 9SM BKN005 BKN007 OVC010 03/02 A2953 RMK AO1 SLP014
SPECI CYNL 241231Z AUTO 32006KT 9SM SCT004 BKN006 BKN008 03/03 A2952 RMK AO1 SLP010
SPECI CYNL 241224Z AUTO 31006KT 3SM OVC004 03/03 A2951 RMK AO1 SLP009
SPECI CYNL 241221Z AUTO 31007KT 2SM OVC004 03/03 A2951 RMK AO1 SLP008
SPECI CYNL 241216Z AUTO 31007KT 1 1/2SM OVC004 03/03 A2951 RMK AO1 SLP008
SPECI CYNL 241213Z AUTO 31007KT 1 1/4SM OVC004 03/03 A2951 RMK AO1 SLP007
SPECI CYNL 241204Z AUTO 31005KT 1 3/4SM OVC003 03/03 A2951 RMK AO1 SLP006
SPECI CYNL 241201Z AUTO 30006KT 2SM OVC003 03/03 A2951 RMK AO1 SLP006
METAR CYNL 241200Z AUTO 31007KT 1 3/4SM OVC003 03/03 A2951 RMK AO1 SLP006
SPECI CYNL 241153Z AUTO 30007KT 1 1/2SM OVC003 03/03 A2950 RMK AO1 SLP005
SPECI CYNL 241143Z AUTO 30007KT 1 1/4SM OVC003 03/03 A2950 RMK AO1 SLP004
SPECI CYNL 241138Z AUTO 30008KT 1 3/4SM OVC003 03/03 A2950 RMK AO1 SLP003
SPECI CYNL 241134Z AUTO 29006KT 2 1/2SM OVC003 03/03 A2950 RMK AO1 SLP003
SPECI CYNL 241126Z AUTO 29007KT 3SM OVC003 03/03 A2950 RMK AO1 SLP002
SPECI CYNL 241121Z AUTO 28007KT 2SM OVC003 03/03 A2950 RMK AO1 SLP002
SPECI CYNL 241112Z AUTO 29008KT 1 3/4SM OVC003 03/03 A2949 RMK AO1 SLP001
SPECI CYNL 241105Z AUTO 29009KT 2SM OVC003 03/03 A2949 RMK AO1 SLP001
METAR CYNL 241100Z AUTO 28006KT 1 1/2SM OVC003 03/03 A2949 RMK AO1 SLP001
SPECI CYNL 241047Z AUTO 28008KT 1 1/2SM OVC003 03/03 A2949 RMK AO1 SLP999
SPECI CYNL 241029Z AUTO 28008KT 1 1/4SM OVC003 03/03 A2949 RMK AO1 SLP999
SPECI CYNL 241024Z AUTO 28007KT 1 1/2SM OVC003 03/03 A2949 RMK AO1 SLP999
SPECI CYNL 241017Z AUTO 28007KT 1 1/4SM OVC004 03/03 A2949 RMK AO1 SLP999
SPECI CYNL 241015Z AUTO 27007KT 1 1/2SM OVC004 03/03 A2949 RMK AO1 SLP999
SPECI CYNL 241014Z AUTO 27007KT 1 1/4SM OVC004 03/03 A2949 RMK AO1 SLP999
SPECI CYNL 241005Z AUTO 27008KT 1 3/4SM OVC004 03/03 A2949 RMK AO1 SLP998
SPECI CYNL 241002Z AUTO 27007KT 2SM OVC004 03/02 A2949 RMK AO1 SLP998
METAR CYNL 241000Z AUTO 28007KT 1 1/2SM OVC004 03/02 A2949 RMK AO1 SLP998
SPECI CYNL 240957Z AUTO 28009KT 1 1/4SM OVC004 03/02 A2949 RMK AO1 SLP996
SPECI CYNL 240954Z AUTO 27008KT 1 1/2SM OVC004 03/02 A2949 RMK AO1 SLP996
SPECI CYNL 240952Z AUTO 27007KT 1 1/4SM OVC004 03/02 A2949 RMK AO1 SLP996
SPECI CYNL 240946Z AUTO 27008KT 1 1/2SM OVC004 03/02 A2949 RMK AO1 SLP996
SPECI CYNL 240943Z AUTO 27008KT 1 1/4SM OVC004 03/02 A2949 RMK AO1 SLP996
SPECI CYNL 240941Z AUTO 27007KT 1 3/4SM OVC004 03/02 A2949 RMK AO1 SLP996
SPECI CYNL 240940Z AUTO 27008KT 2SM OVC004 03/02 A2949 RMK AO1 SLP996
SPECI CYNL 240937Z AUTO 27006KT 3SM OVC004 03/02 A2949 RMK AO1 SLP995
SPECI CYNL 240931Z AUTO 27009KT 2 1/2SM OVC004 03/02 A2949 RMK AO1 SLP995
SPECI CYNL 240912Z AUTO 27008G16KT 3SM OVC004 03/02 A2949 RMK AO1 SLP995
SPECI CYNL 240903Z AUTO 26009G16KT 2SM OVC004 03/02 A2948 RMK AO1 SLP995
METAR CYNL 240900Z AUTO 27008G16KT 1 1/2SM OVC004 03/02 A2948 RMK AO1 SLP994
SPECI CYNL 240843Z AUTO 27009KT 1 3/4SM OVC004 03/02 A2948 RMK AO1 SLP993
SPECI CYNL 240837Z AUTO 27007KT 2 1/2SM OVC004 03/02 A2948 RMK AO1 SLP993
SPECI CYNL 240831Z AUTO 27009KT 4SM OVC004 03/02 A2948 RMK AO1 SLP994
SPECI CYNL 240819Z AUTO 26009G15KT 3SM OVC005 03/02 A2948 RMK AO1 SLP994
SPECI CYNL 240810Z AUTO 26008G16KT 2SM OVC005 03/02 A2948 RMK AO1 SLP994
SPECI CYNL 240807Z AUTO 27009G16KT 1 1/2SM OVC005 03/02 A2949 RMK AO1 SLP994
SPECI CYNL 240804Z AUTO 27010G16KT 1 1/4SM OVC005 03/02 A2948 RMK AO1 SLP994
SPECI CYNL 240802Z AUTO 27009G16KT 1 3/4SM OVC005 03/02 A2948 RMK AO1 SLP994
METAR CYNL 240800Z AUTO 26008G15KT 2SM OVC005 03/02 A2948 RMK AO1 SLP994
SPECI CYNL 240755Z AUTO 26010KT 2 1/2SM OVC005 03/02 A2948 RMK AO1 SLP994
SPECI CYNL 240751Z AUTO 26007KT 3SM OVC005 03/02 A2948 RMK AO1 SLP994
SPECI CYNL 240744Z AUTO 26006G15KT 2SM OVC005 03/02 A2948 RMK AO1 SLP995
SPECI CYNL 240742Z AUTO 26008G15KT 1 1/2SM OVC005 03/02 A2948 RMK AO1 SLP995
SPECI CYNL 240741Z AUTO 27007G15KT 2SM OVC005 03/02 A2948 RMK AO1 SLP995
SPECI CYNL 240735Z AUTO 27010KT 3SM OVC006 03/02 A2949 RMK AO1 SLP995
SPECI CYNL 240728Z AUTO 27009KT 2 1/2SM OVC006 03/02 A2949 RMK AO1 SLP995
METAR CYNL 240700Z AUTO 27008G16KT 9SM OVC006 03/02 A2949 RMK AO1 SLP995
SPECI CYNL 240634Z AUTO 27009G17KT 9SM BKN008 BKN010 OVC013 04/02 A2949 RMK AO1 SLP994
SPECI CYNL 240627Z AUTO 26008G17KT 9SM SCT009 BKN011 OVC013 04/02 A2949 RMK AO1 SLP994
METAR CYNL 240600Z AUTO 28008KT 9SM BKN011 OVC015 04/03 A2950 RMK AO1 SLP996
SPECI CYNL 240536Z AUTO 28011G16KT 9SM FEW006 SCT008 BKN011 04/03 A2950 RMK AO1 SLP997
SPECI CYNL 240529Z AUTO 28011G17KT 3SM BKN008 OVC015 04/03 A2950 RMK AO1 SLP997
SPECI CYNL 240520Z AUTO 27008G16KT 2 1/2SM BKN008 OVC011 05/04 A2950 RMK AO1 SLP997
METAR CYNL 240500Z AUTO 26008KT 8SM BKN009 OVC012 05/04 A2950 RMK AO1 SLP996
SPECI CYNL 240457Z AUTO 26008KT 9SM BKN009 OVC012 05/04 A2950 RMK AO1 SLP000
SPECI CYNL 240448Z AUTO 26009KT 7SM FEW009 BKN011 BKN016 05/04 A2950 RMK AO1 SLP000
SPECI CYNL 240436Z AUTO 25007KT 9SM BKN012 BKN018 OVC022 05/04 A2950 RMK AO1 SLP000
SPECI CYNL 240435Z AUTO 24006KT 9SM SCT012 BKN016 OVC022 05/04 A2950 RMK AO1 SLP001
SPECI CYNL 240432Z AUTO 25006KT 9SM BKN014 OVC021 05/04 A2950 RMK AO1 SLP001
SPECI CYNL 240407Z AUTO 27008KT 4SM FEW012 BKN022 BKN080 05/04 A2950 RMK AO1 SLP002
SPECI CYNL 240405Z AUTO 27008KT 2SM FEW012 SCT023 BKN028 05/04 A2950 RMK AO1 SLP002
SPECI CYNL 240404Z AUTO 26007KT 2SM FEW012 BKN023 BKN080 05/04 A2950 RMK AO1 SLP002
SPECI CYNL 240403Z AUTO 26007KT 2 1/2SM SCT023 BKN030 BKN080 05/04 A2951 RMK AO1 SLP002
METAR CYNL 240400Z AUTO 26006KT 3SM SCT025 BKN037 BKN080 05/04 A2951 RMK AO1 SLP003
METAR CYNL 240300Z AUTO 27006KT 9SM SCT066 06/04 A2950 RMK AO1 SLP004
SPECI CYNL 240234Z AUTO 28006KT 9SM SCT022 BKN031 06/04 A2950 RMK AO1 SLP004
SPECI CYNL 240220Z AUTO 28004KT 8SM BKN023 07/03 A2950 RMK AO1 SLP002
METAR CYNL 240200Z AUTO 28006KT 9SM FEW039 SCT082 07/03 A2949 RMK AO1 SLP001
METAR CYNL 240100Z AUTO 29007G16KT 9SM FEW025 SCT035 BKN044 08/04 A2949 RMK AO1 SLP999
SPECI CYNL 240047Z AUTO 30009G20KT 9SM SCT026 BKN045 08/04 A2949 RMK AO1 SLP999
SPECI CYNL 240042Z AUTO 30012G20KT 9SM BKN026 08/04 A2949 RMK AO1 SLP998
METAR CYNL 240000Z AUTO 30008G20KT 9SM FEW019 SCT027 BKN041 08/05 A2948 RMK AO1 SLP995
SPECI CYNL 232359Z AUTO 30008G20KT 9SM FEW018 SCT027 BKN043 08/05 A2948 RMK AO1 SLP995
SPECI CYNL 232356Z AUTO 29011G20KT 9SM FEW020 BKN028 BKN086 08/05 A2948 RMK AO1 PRESRR SLP995
SPECI CYNL 232355Z AUTO 29010G20KT 8SM BKN024 09/05 A2948 RMK AO1 PRESRR SLP995
METAR CYNL 232300Z AUTO 29010G16KT 9SM FEW025 SCT058 BKN084 10/05 A2946 RMK AO1 PRESRR SLP988
SPECI CYNL 232236Z AUTO 30011G18KT 3SM SCT027 OVC040 09/05 A2946 RMK AO1 WSHFT (22)34 SLP988
SPECI CYNL 232235Z AUTO 30011G16KT 3SM BKN029 OVC042 09/04 A2946 RMK AO1 WSHFT (22)34 SLP987
SPECI CYNL 232234Z AUTO 30011G16KT 5SM FEW026 BKN034 OVC042 10/04 A2946 RMK AO1 WSHFT (22)34 SLP987
METAR CYNL 232200Z AUTO 28011G21KT 9SM BKN054 12/02 A2943 RMK AO1 SLP976
SPECI CYNL 232110Z AUTO 24008KT 6SM FEW021 SCT039 11/04 A2943 RMK AO1 SLP974
SPECI CYNL 232108Z AUTO 28009KT 2 1/2SM SCT038 11/05 A2943 RMK AO1 SLP975
METAR CYNL 232100Z AUTO 29005KT 9SM FEW039 13/03 A2942 RMK AO1 SLP970
METAR CYNL 232000Z AUTO 24007KT 9SM FEW036 12/04 A2942 RMK AO1 SLP969
METAR CYNL 231900Z AUTO 25010G18KT 9SM BKN045 13/02 A2941 RMK AO1 SLP966
METAR CYNL 231800Z AUTO 23005KT 9SM FEW110 12/02 A2942 RMK AO1 SLP970
METAR CYNL 231700Z AUTO 17006KT 9SM FEW066 09/03 A2944 RMK AO1 SLP978
METAR CYNL 231600Z AUTO 15005KT 9SM FEW092 06/02 A2945 RMK AO1 PRESFR SLP984
METAR CYNL 231500Z AUTO 16005KT 9SM OVC054 04/02 A2947 RMK AO1 SLP994
METAR CYNL 231400Z AUTO 14006KT 9SM BKN062 04/02 A2949 RMK AO1 SLP999
METAR CYNL 231300Z AUTO 15006KT 9SM SCT044 04/02 A2951 RMK AO1 PRESFR SLP005
SPECI CYNL 231201Z AUTO 16004KT 9SM FEW008 BKN037 OVC054 04/02 A2954 RMK AO1 SLP012
METAR CYNL 231200Z AUTO 16004KT 9SM BKN037 OVC054 04/02 A2954 RMK AO1 SLP012
SPECI CYNL 231115Z AUTO 14007KT 9SM FEW006 OVC041 04/02 A2955 RMK AO1 PRESFR SLP013
METAR CYNL 231100Z AUTO 14008KT 9SM FEW026 BKN037 OVC045 04/02 A2955 RMK AO1 PRESFR SLP015
SPECI CYNL 231015Z AUTO 14009KT 9SM SCT026 05/00 A2957 RMK AO1 PRESFR SLP022
SPECI CYNL 231010Z AUTO 14009KT 7SM VV026 05/00 A2957 RMK AO1 PRESFR SLP022
METAR CYNL 231000Z AUTO 14009KT 9SM CLR 05/00 A2958 RMK AO1 PRESFR SLP023
METAR CYNL 230900Z AUTO 15010G18KT 9SM CLR 06/M01 A2960 RMK AO1 PRESFR SLP032
METAR CYNL 230800Z AUTO 15010G19KT 9SM FEW090 06/M01 A2964 RMK AO1 PRESFR SLP042
METAR CYNL 230700Z AUTO 11004KT 9SM CLR 05/M02 A2967 RMK AO1 PRESFR SLP056
METAR CYNL 230600Z AUTO 13007KT 9SM SCT098 06/M02 A2971 RMK AO1 PRESFR SLP068
METAR CYNL 230500Z AUTO 14008KT 9SM FEW092 07/M02 A2975 RMK AO1 PRESFR SLP084
METAR CYNL 230400Z AUTO 15009KT 9SM BKN094 08/M03 A2979 RMK AO1 PRESFR SLP096
METAR CYNL 230300Z AUTO 14010KT 9SM FEW110 08/M03 A2981 RMK AO1 PRESFR SLP106
METAR CYNL 230200Z AUTO 15009G18KT 9SM CLR 10/M03 A2984 RMK AO1 SLP114
METAR CYNL 230100Z AUTO 15009G19KT 9SM CLR 12/M03 A2985 RMK AO1 PRESFR SLP123
METAR CYNL 230000Z AUTO 16014G22KT 9SM CLR 13/M04 A2987 RMK AO1 PRESFR SLP132
METAR CYNL 222300Z AUTO 17014G19KT 9SM CLR 13/M04 A2990 RMK AO1 PRESFR SLP143
METAR CYNL 222200Z AUTO 17010G17KT 9SM CLR 13/M02 A2993 RMK AO1 PRESFR SLP154
METAR CYNL 222100Z AUTO 18012G20KT 9SM CLR 13/M03 A2996 RMK AO1 PRESFR SLP165
METAR CYNL 222000Z AUTO 18012G19KT 9SM BKN090 12/M03 A2999 RMK AO1 PRESFR SLP176
METAR CYNL 221900Z AUTO 17012G19KT 9SM CLR 11/M03 A3002 RMK AO1 PRESFR SLP184
METAR CYNL 221800Z AUTO 16012G20KT 9SM CLR 10/M02 A3005 RMK AO1 PRESFR SLP195
METAR CYNL 221700Z AUTO 15009G16KT 9SM CLR 09/M02 A3007 RMK AO1 PRESFR SLP205
METAR CYNL 221600Z AUTO 15008KT 9SM CLR 07/M02 A3011 RMK AO1 PRESFR SLP218
METAR CYNL 221500Z AUTO 17007KT 9SM CLR 05/M02 A3013 RMK AO1 SLP228
METAR CYNL 221400Z AUTO 16004KT 9SM CLR 01/M02 A3015 RMK AO1 SLP236
METAR CYNL 221300Z AUTO 11002KT 9SM CLR M02/M03 A3016 RMK AO1 SLP240
METAR CYNL 221200Z AUTO 00000KT 9SM CLR M03/M05 A3017 RMK AO1 SLP242
METAR CYNL 221100Z AUTO 11002KT 9SM CLR M04/M05 A3018 RMK AO1 SLP244
METAR CYNL 221000Z AUTO 00000KT 9SM CLR M04/M05 A3018 RMK AO1 SLP247
METAR CYNL 220900Z AUTO 00000KT 9SM CLR M04/M05 A3018 RMK AO1 SLP248
METAR CYNL 220800Z AUTO 00000KT 9SM SCT041 M03/M04 A3019 RMK AO1 SLP249
METAR CYNL 220700Z AUTO 00000KT 9SM CLR M03/M05 A3019 RMK AO1 SLP250
METAR CYNL 220600Z AUTO 00000KT 9SM CLR M02/M04 A3018 RMK AO1 SLP248
METAR CYNL 220500Z AUTO 00000KT 9SM CLR M02/M04 A3018 RMK AO1 SLP249
METAR CYNL 220400Z AUTO 16003KT 9SM CLR M00/M03 A3018 RMK AO1 SLP246
METAR CYNL 220300Z AUTO 00000KT 9SM CLR 02/M02 A3017 RMK AO1 SLP242
METAR CYNL 220200Z AUTO 00000KT 9SM SCT044 BKN054 05/M02 A3016 RMK AO1 SLP237
METAR CYNL 220100Z AUTO 26004KT 200V310 9SM FEW045 SCT058 06/M02 A3014 RMK AO1 SLP233
METAR CYNL 220000Z AUTO 15002KT 9SM SCT052 07/M03 A3013 RMK AO1 SLP227
METAR CYNL 212300Z AUTO 00003KT 9SM SCT041 BKN056 06/M03 A3013 RMK AO1 SLP228
METAR CYNL 212200Z AUTO 28004KT 9SM BKN048 06/M04 A3012 RMK AO1 SLP226
METAR CYNL 212100Z AUTO 32005KT 9SM SCT039 06/M04 A3012 RMK AO1 SLP225
METAR CYNL 212000Z AUTO 29008KT 9SM FEW048 05/M04 A3011 RMK AO1 SLP222
METAR CYNL 211900Z AUTO 31006KT 9SM FEW029 BKN084 04/M04 A3010 RMK AO1 SLP219
METAR CYNL 211800Z AUTO 27005KT 9SM SCT024 BKN080 03/M04 A3009 RMK AO1 SLP215
SPECI CYNL 211754Z AUTO 29007KT 250V330 9SM SCT023 BKN080 03/M04 A3009 RMK AO1 SLP214
METAR CYNL 211700Z AUTO 34006KT 9SM OVC024 02/M04 A3008 RMK AO1 SLP212
SPECI CYNL 211651Z AUTO 31007KT 280V340 9SM BKN024 OVC028 02/M04 A3008 RMK AO1 SLP212
SPECI CYNL 211650Z AUTO 31007KT 280V340 9SM OVC025 02/M04 A3007 RMK AO1 SLP212
SPECI CYNL 211649Z AUTO 30006KT 9SM BKN024 OVC028 02/M04 A3007 RMK AO1 SLP211
SPECI CYNL 211626Z AUTO 00000KT 9SM SCT024 BKN029 BKN084 02/M05 A3007 RMK AO1 SLP209
METAR CYNL 211600Z AUTO 33006KT 9SM FEW072 BKN084 02/M04 A3006 RMK AO1 SLP207
SPECI CYNL 211523Z AUTO 12002KT 9SM SCT015 BKN072 01/M05 A3006 RMK AO1 SLP207
SPECI CYNL 211514Z AUTO 00000KT 9SM OVC015 01/M05 A3006 RMK AO1 SLP208
METAR CYNL 211500Z AUTO 00000KT 9SM OVC014 M01/M06 A3006 RMK AO1 SLP210
SPECI CYNL 211404Z AUTO 11002KT 9SM OVC014 M02/M07 A3005 RMK AO1 SLP209
METAR CYNL 211400Z AUTO 00000KT 9SM OVC015 M02/M07 A3005 RMK AO1 SLP209
METAR CYNL 211300Z AUTO 06003KT 9SM OVC016 M03/M07 A3004 RMK AO1 PRESRR SLP205
SPECI CYNL 211227Z AUTO 07003KT 9SM BKN017 OVC025 M03/M07 A3003 RMK AO1 SLP202
SPECI CYNL 211213Z AUTO 11004KT 9SM OVC025 M03/M07 A3003 RMK AO1 SLP200
METAR CYNL 211200Z AUTO 12005KT 9SM OVC023 M03/M08 A3002 RMK AO1 SLP198
SPECI CYNL 211110Z AUTO 09003KT 9SM FEW015 BKN022 OVC038 M03/M07 A3002 RMK AO1 SLP196
METAR CYNL 211100Z AUTO 08004KT 9SM FEW015 OVC038 M03/M08 A3002 RMK AO1 SLP195
SPECI CYNL 211015Z AUTO 09005KT 9SM SCT026 OVC035 M03/M07 A3001 RMK AO1 SLP191
SPECI CYNL 211011Z AUTO 08005KT 9SM BKN026 OVC034 M03/M07 A3001 RMK AO1 SLP192
METAR CYNL 211000Z AUTO 08006KT 9SM BKN031 M03/M07 A3000 RMK AO1 SLP191
SPECI CYNL 210902Z AUTO 08007KT 9SM FEW008 OVC030 M02/M07 A2999 RMK AO1 SLP187
SPECI CYNL 210901Z AUTO 07007KT 9SM FEW008 OVC029 M02/M06 A2999 RMK AO1 SLP187
METAR CYNL 210900Z AUTO 07007KT 9SM FEW008 OVC030 M02/M06 A2999 RMK AO1 SLP187
SPECI CYNL 210847Z AUTO 07007KT 9SM FEW010 SCT016 OVC030 M02/M06 A2999 RMK AO1 SLP187
SPECI CYNL 210841Z AUTO 07006KT 3SM SCT010 OVC029 M02/M06 A3000 RMK AO1 SLP187
SPECI CYNL 210840Z AUTO 07006KT 2SM SCT010 OVC029 M02/M06 A2999 RMK AO1 SLP187
SPECI CYNL 210838Z AUTO 08007KT 2SM SCT010 BKN016 OVC029 M02/M06 A2999 RMK AO1 SLP187
SPECI CYNL 210837Z AUTO 08007KT 2SM VV009 M02/M06 A2999 RMK AO1 SLP187
SPECI CYNL 210836Z AUTO 08007KT 1 3/4SM VV009 M02/M06 A2999 RMK AO1 SLP186
SPECI CYNL 210835Z AUTO 08006KT 1 1/2SM VV010 M02/M06 A2999 RMK AO1 SLP186
SPECI CYNL 210831Z AUTO 07006KT 1 1/4SM VV012 M02/M06 A2999 RMK AO1 SLP186
SPECI CYNL 210830Z AUTO 08006KT 1 3/4SM VV012 M02/M07 A2999 RMK AO1 SLP186
SPECI CYNL 210829Z AUTO 08006KT 2SM VV013 M02/M07 A2999 RMK AO1 SLP186
SPECI CYNL 210810Z AUTO 08006KT 9SM FEW009 BKN029 M01/M07 A2999 RMK AO1 SLP185
METAR CYNL 210800Z AUTO 09005KT 9SM FEW007 M01/M08 A2999 RMK AO1 SLP185
SPECI CYNL 210753Z AUTO 10005KT 9SM FEW009 M01/M08 A2999 RMK AO1 SLP186
METAR CYNL 210700Z AUTO 11006KT 9SM SCT029 M01/M08 A2999 RMK AO1 SLP186
SPECI CYNL 210653Z AUTO 12006KT 9SM SCT029 M01/M08 A2999 RMK AO1 SLP187
SPECI CYNL 210613Z AUTO 12006KT 9SM OVC025 M01/M08 A2999 RMK AO1 SLP185
METAR CYNL 210600Z AUTO 13005KT 9SM OVC023 M01/M07 A2998 RMK AO1 SLP184
SPECI CYNL 210539Z AUTO 13006KT 9SM OVC024 M01/M07 A2998 RMK AO1 SLP182
METAR CYNL 210500Z AUTO 12007KT 9SM OVC026 M01/M07 A2997 RMK AO1 SLP180
METAR CYNL 210400Z AUTO 13009KT 9SM OVC028 M01/M08 A2996 RMK AO1 SLP178
METAR CYNL 210300Z AUTO 11006KT 9SM OVC029 M01/M07 A2995 RMK AO1 SLP176
SPECI CYNL 210259Z AUTO 11006KT 9SM OVC029 M01/M07 A2995 RMK AO1 SLP177
METAR CYNL 210200Z AUTO 11007KT 9SM BKN032 OVC066 M00/M07 A2994 RMK AO1 SLP172
METAR CYNL 210100Z AUTO 12008KT 9SM BKN066 00/M07 A2992 RMK AO1 SLP167
METAR CYNL 210000Z AUTO 13008KT 9SM BKN058 BKN072 00/M07 A2991 RMK AO1 PRESRR SLP164
METAR CYNL 202300Z AUTO 12006KT 9SM BKN070 01/M07 A2989 RMK AO1 SLP156
METAR CYNL 202200Z AUTO 08007KT 9SM CLR 01/M06 A2988 RMK AO1 PRESRR SLP153
METAR CYNL 202100Z AUTO 07012KT 9SM CLR 00/M06 A2986 RMK AO1 SLP146
METAR CYNL 202000Z AUTO 07008G16KT 9SM FEW056 M00/M06 A2985 RMK AO1 SLP141
METAR CYNL 201900Z AUTO 09008G16KT 9SM FEW058 M01/M07 A2984 RMK AO1 SLP138
METAR CYNL 201800Z AUTO 10006KT 9SM FEW019 BKN058 M02/M07 A2985 RMK AO1 PRESRR SLP139
METAR CYNL 201700Z AUTO 11010KT 9SM BKN058 M04/M08 A2982 RMK AO1 SLP131
METAR CYNL 201600Z AUTO 09009KT 9SM FEW013 OVC056 M05/M08 A2980 RMK AO1 SLP126
METAR CYNL 201500Z AUTO 09008KT 9SM SCT014 OVC046 M06/M09 A2980 RMK AO1 SLP124
SPECI CYNL 201455Z AUTO 10009KT 9SM SCT014 BKN038 BKN049 M06/M09 A2980 RMK AO1 SLP121
METAR CYNL 201400Z AUTO 08010KT 9SM OVC014 M06/M10 A2979 RMK AO1 SLP119
SPECI CYNL 201337Z AUTO 10009KT 9SM BKN014 BKN056 M07/M10 A2978 RMK AO1 PRESRR SLP116
METAR CYNL 201300Z AUTO 10008KT 9SM FEW016 SCT046 BKN062 M07/M11 A2978 RMK AO1 PRESRR SLP113
METAR CYNL 201200Z AUTO 09009KT 9SM OVC054 M07/M10 A2974 RMK AO1 PRESRR SLP098
SPECI CYNL 201118Z AUTO 08009KT 9SM SCT007 OVC060 M07/M09 A2972 RMK AO1 PRESRR SLP091
METAR CYNL 201100Z AUTO 08010KT 9SM OVC007 M07/M09 A2972 RMK AO1 PRESRR SLP090
METAR CYNL 201000Z AUTO 08010KT 9SM SCT007 OVC008 M06/M08 A2969 RMK AO1 SLP082
METAR CYNL 200900Z AUTO 08008KT 9SM OVC008 M05/M07 A2967 RMK AO1 PRESRR SLP075
METAR CYNL 200800Z AUTO 05006KT 9SM OVC008 M03/M05 A2965 RMK AO1 PRESRR SLP062
METAR CYNL 200700Z AUTO 03008KT 9SM OVC008 M02/M04 A2962 RMK AO1 PRESRR SLP049
SPECI CYNL 200635Z AUTO 03008KT 9SM BKN007 BKN014 OVC017 M02/M04 A2961 RMK AO1 PRESRR SLP043
SPECI CYNL 200634Z AUTO 03006KT 9SM SCT007 BKN014 OVC017 M02/M03 A2961 RMK AO1 PRESRR SLP043
SPECI CYNL 200606Z AUTO 01006KT 4SM SCT006 OVC015 M02/M03 A2960 RMK AO1 PRESRR SLP039
SPECI CYNL 200604Z AUTO 02008KT 3SM SCT006 BKN012 OVC016 M02/M03 A2960 RMK AO1 PRESRR SLP039
SPECI CYNL 200603Z AUTO 01008KT 2SM SCT006 BKN012 OVC016 M02/M03 A2960 RMK AO1 PRESRR SLP039
SPECI CYNL 200601Z AUTO 02007KT 2SM VV014 M02/M03 A2960 RMK AO1 PRESRR SLP038
METAR CYNL 200600Z AUTO 03007KT 3SM BKN006 OVC015 M02/M03 A2960 RMK AO1 PRESRR SLP038
SPECI CYNL 200556Z AUTO 03008KT 3SM BKN006 BKN012 OVC015 M02/M03 A2960 RMK AO1 PRESRR SLP039
SPECI CYNL 200553Z AUTO 03009KT 2 1/2SM BKN006 OVC012 M02/M03 A2960 RMK AO1 PRESRR SLP039
SPECI CYNL 200541Z AUTO 02007KT 4SM BKN005 OVC012 M01/M03 A2959 RMK AO1 PRESRR SLP037
SPECI CYNL 200540Z AUTO 02006KT 3SM VV012 M01/M03 A2959 RMK AO1 PRESRR SLP037
SPECI CYNL 200539Z AUTO 03007KT 2 1/2SM VV011 M01/M03 A2959 RMK AO1 PRESRR SLP037
SPECI CYNL 200534Z AUTO 03008KT 1 1/2SM BKN005 OVC011 M01/M03 A2959 RMK AO1 PRESRR SLP036
SPECI CYNL 200532Z AUTO 04008KT 2 1/2SM OVC005 M01/M02 A2959 RMK AO1 PRESRR SLP036
SPECI CYNL 200530Z AUTO 03007KT 3SM OVC005 M01/M02 A2959 RMK AO1 PRESRR SLP035
SPECI CYNL 200529Z AUTO 03007KT 2 1/2SM OVC005 M01/M02 A2959 RMK AO1 PRESRR SLP035
METAR CYNL 200500Z AUTO 01007KT 4SM OVC006 M01/M02 A2957 RMK AO1 PRESRR SLP031
SPECI CYNL 200423Z AUTO 02011KT 9SM BKN009 OVC011 M00/M02 A2955 RMK AO1 PRESRR SLP024
METAR CYNL 200400Z AUTO 02008KT 9SM OVC012 01/M02 A2955 RMK AO1 PRESRR SLP021
SPECI CYNL 200329Z AUTO 00007KT 9SM BKN014 OVC018 02/M01 A2953 RMK AO1 SLP017
SPECI CYNL 200304Z AUTO 00007KT 9SM BKN020 OVC025 03/M01 A2952 RMK AO1 SLP013
SPECI CYNL 200303Z AUTO 00007KT 9SM SCT020 OVC025 03/M01 A2952 RMK AO1 SLP012
METAR CYNL 200300Z AUTO 35009KT 9SM OVC023 03/M01 A2952 RMK AO1 SLP012
SPECI CYNL 200256Z AUTO 00004KT 9SM OVC024 03/M01 A2952 RMK AO1 PRESRR SLP013
SPECI CYNL 200232Z AUTO 34008KT 9SM OVC029 04/M00 A2951 RMK AO1 PRESRR SLP010
METAR CYNL 200200Z AUTO 33006KT 9SM OVC035 04/M00 A2950 RMK AO1 PRESRR SLP006
METAR CYNL 200100Z AUTO 33006KT 9SM SCT026 BKN036 06/01 A2948 RMK AO1 PRESRR SLP997
METAR CYNL 200000Z AUTO 28006KT 9SM FEW014 SCT066 07/02 A2946 RMK AO1 SLP991
METAR CYNL 192300Z AUTO 21003KT 9SM FEW210 06/03 A2945 RMK AO1 SLP988
METAR CYNL 192200Z AUTO 21009G18KT 9SM FEW010 SCT060 05/02 A2944 RMK AO1 PRESRR SLP987
SPECI CYNL 192158Z AUTO 21010G18KT 9SM FEW009 SCT060 05/02 A2945 RMK AO1 PRESRR SLP987
SPECI CYNL 192131Z AUTO 24011G22KT 9SM SCT029 BKN052 05/02 A2944 RMK AO1 SLP985
SPECI CYNL 192127Z AUTO 23009G22KT 3SM VV028 06/02 A2944 RMK AO1 SLP983
SPECI CYNL 192126Z AUTO 24009G22KT 3SM SCT028 BKN052 06/01 A2944 RMK AO1 SLP984
SPECI CYNL 192123Z AUTO 25013G22KT 2 1/2SM FEW030 SCT052 07/01 A2945 RMK AO1 SLP986
METAR CYNL 192100Z AUTO 24010KT 9SM CLR 08/M02 A2942 RMK AO1 SLP974
METAR CYNL 192000Z AUTO 29006KT 9SM FEW070 10/M01 A2940 RMK AO1 SLP969
METAR CYNL 191900Z AUTO 25008KT 9SM FEW210 12/M01 A2940 RMK AO1 SLP967
METAR CYNL 191800Z AUTO 25008KT 9SM CLR 10/M00 A2941 RMK AO1 SLP970
METAR CYNL 191700Z AUTO 25008KT 9SM CLR 10/00 A2942 RMK AO1 SLP975
METAR CYNL 191600Z AUTO 22006KT 9SM CLR 07/01 A2944 RMK AO1 PRESFR SLP981
METAR CYNL 191500Z AUTO 22004KT 9SM FEW210 05/01 A2946 RMK AO1 SLP991
METAR CYNL 191400Z AUTO 23004KT 9SM SCT054 04/01 A2947 RMK AO1 SLP995
METAR CYNL 191300Z AUTO 19004KT 9SM SCT056 04/01 A2947 RMK AO1 SLP995
METAR CYNL 191200Z AUTO 19003KT 9SM CLR 04/01 A2948 RMK AO1 PRESFR SLP999
METAR CYNL 191100Z AUTO 15003KT 9SM FEW015 03/01 A2950 RMK AO1 SLP004
METAR CYNL 191000Z AUTO 20005KT 9SM CLR 04/01 A2952 RMK AO1 PRESFR SLP011
METAR CYNL 190900Z AUTO 21005KT 9SM CLR 03/M00 A2955 RMK AO1 PRESFR SLP022
METAR CYNL 190800Z AUTO 18002KT 9SM FEW084 OVC120 03/00 A2958 RMK AO1 PRESFR SLP028
METAR CYNL 190700Z AUTO 16003KT 9SM FEW066 04/00 A2960 RMK AO1 PRESFR SLP035
METAR CYNL 190600Z AUTO 12003KT 9SM FEW080 SCT120 03/00 A2962 RMK AO1 PRESFR SLP044
METAR CYNL 190500Z AUTO 23003KT 9SM FEW015 04/00 A2967 RMK AO1 PRESFR SLP061
METAR CYNL 190400Z AUTO 16003KT 9SM FEW054 04/00 A2969 RMK AO1 SLP068
METAR CYNL 190300Z AUTO 00000KT 9SM BKN110 05/00 A2970 RMK AO1 SLP073
METAR CYNL 190200Z AUTO 00000KT 9SM FEW130 05/M00 A2972 RMK AO1 PRESFR SLP077
METAR CYNL 190100Z AUTO 10002KT 9SM CLR 06/M00 A2974 RMK AO1 PRESFR SLP088
METAR CYNL 190000Z AUTO 09007KT 9SM CLR 07/00 A2977 RMK AO1 SLP097
METAR CYNL 182300Z AUTO 08005KT 9SM FEW037 SCT066 07/02 A2978 RMK AO1 SLP106
METAR CYNL 182200Z AUTO 07007KT 9SM FEW062 08/00 A2979 RMK AO1 SLP107
METAR CYNL 182100Z AUTO 11006KT 080V150 9SM CLR 10/01 A2981 RMK AO1 PRESFR SLP112
METAR CYNL 182000Z AUTO 12009KT 9SM FEW200 09/01 A2983 RMK AO1 SLP121
METAR CYNL 181900Z AUTO 07007KT 9SM CLR 08/01 A2985 RMK AO1 SLP126
METAR CYNL 181800Z AUTO 06007KT 9SM FEW076 07/00 A2985 RMK AO1 SLP128
METAR CYNL 181700Z AUTO 03005KT 9SM FEW078 07/01 A2986 RMK AO1 SLP132
METAR CYNL 181600Z AUTO 02003KT 9SM FEW078 06/01 A2987 RMK AO1 SLP136
METAR CYNL 181500Z AUTO 02002KT 9SM SCT082 05/01 A2986 RMK AO1 SLP132
METAR CYNL 181400Z AUTO 35004KT 9SM CLR 03/M00 A2986 RMK AO1 SLP130
METAR CYNL 181300Z AUTO 00000KT 9SM CLR 02/M01 A2985 RMK AO1 SLP128
METAR CYNL 181200Z AUTO 00000KT 9SM CLR M01/M02 A2984 RMK AO1 SLP125
METAR CYNL 181100Z AUTO 00000KT 9SM CLR 00/M02 A2982 RMK AO1 SLP117
METAR CYNL 181000Z AUTO 26003KT 9SM CLR M01/M03 A2980 RMK AO1 SLP112
METAR CYNL 180900Z AUTO 27003KT 9SM CLR M01/M03 A2980 RMK AO1 SLP111
METAR CYNL 180800Z AUTO 24005KT 9SM CLR 01/M02 A2980 RMK AO1 SLP109
METAR CYNL 180700Z AUTO 26003KT 9SM OVC094 01/M02 A2979 RMK AO1 SLP103
METAR CYNL 180600Z AUTO 23004KT 9SM FEW086 M00/M03 A2977 RMK AO1 SLP101
METAR CYNL 180500Z AUTO 23003KT 9SM CLR M00/M03 A2977 RMK AO1 SLP101
METAR CYNL 180400Z AUTO 00000KT 9SM CLR 02/M01 A2977 RMK AO1 SLP099
METAR CYNL 180300Z AUTO 23005KT 190V260 9SM CLR 04/M01 A2977 RMK AO1 SLP097
METAR CYNL 180200Z AUTO 19003KT 9SM CLR 06/M00 A2975 RMK AO1 SLP091
METAR CYNL 180100Z AUTO 00004KT 9SM FEW013 BKN060 06/00 A2976 RMK AO1 SLP097
METAR CYNL 180000Z AUTO 12004KT 9SM SCT064 08/00 A2974 RMK AO1 SLP092
METAR CYNL 172300Z AUTO 11005KT 070V140 9SM FEW017 SCT047 07/00 A2974 RMK AO1 SLP097
SPECI CYNL 172250Z AUTO 00007KT 280V070 9SM FEW008 SCT044 BKN056 07/00 A2973 RMK AO1 SLP096
SPECI CYNL 172249Z AUTO 00007KT 280V070 4SM VV020 07/01 A2973 RMK AO1 SLP096
SPECI CYNL 172248Z AUTO 00007KT 280V070 2 1/2SM VV020 07/M00 A2973 RMK AO1 SLP096
SPECI CYNL 172246Z AUTO 32009KT 280V350 2 1/2SM FEW026 BKN049 07/M00 A2974 RMK AO1 SLP100
METAR CYNL 172200Z AUTO 09002KT 9SM FEW021 SCT068 09/M01 A2974 RMK AO1 SLP096
SPECI CYNL 172136Z AUTO 23009KT 190V260 9SM FEW009 SCT024 08/M01 A2975 RMK AO1 SLP100
METAR CYNL 172100Z AUTO 17006KT 9SM CLR 09/M01 A2975 RMK AO1 SLP098
METAR CYNL 172000Z AUTO 19011G17KT 9SM FEW090 09/M04 A2976 RMK AO1 SLP100
SPECI CYNL 171917Z AUTO 22008G21KT 3SM FEW006 SCT039 06/M01 A2979 RMK AO1 SLP114
SPECI CYNL 171916Z AUTO 22011G21KT 2 1/2SM FEW006 SCT190 06/M02 A2979 RMK AO1 SLP115
SPECI CYNL 171914Z AUTO 22014G21KT 190V260 5SM FEW006 06/M01 A2979 RMK AO1 SLP113
SPECI CYNL 171911Z AUTO 24013G21KT 2 1/2SM FEW006 07/M02 A2978 RMK AO1 SLP111
METAR CYNL 171900Z AUTO 19008KT 9SM FEW058 08/M05 A2977 RMK AO1 SLP107
METAR CYNL 171800Z AUTO 16009KT 9SM CLR 08/M04 A2978 RMK AO1 SLP109
METAR CYNL 171700Z AUTO 14008KT 9SM CLR 07/M05 A2980 RMK AO1 SLP115
METAR CYNL 171600Z AUTO 15008KT 9SM CLR 06/M05 A2981 RMK AO1 SLP119
METAR CYNL 171500Z AUTO 15005KT 9SM CLR 04/M05 A2983 RMK AO1 SLP125
METAR CYNL 171400Z AUTO 00000KT 9SM CLR 01/M05 A2984 RMK AO1 SLP132
METAR CYNL 171300Z AUTO 11002KT 9SM CLR M02/M06 A2984 RMK AO1 SLP133
METAR CYNL 171200Z AUTO 03002KT 9SM CLR M06/M08 A2985 RMK AO1 SLP139
METAR CYNL 171100Z AUTO 00000KT 9SM CLR M06/M07 A2986 RMK AO1 SLP142
METAR CYNL 171000Z AUTO 24002KT 9SM CLR M06/M08 A2987 RMK AO1 SLP144
METAR CYNL 170900Z AUTO 22003KT 9SM CLR M05/M07 A2987 RMK AO1 SLP145
METAR CYNL 170800Z AUTO 00000KT 9SM CLR M06/M07 A2988 RMK AO1 SLP148
METAR CYNL 170700Z AUTO 22003KT 9SM CLR M05/M07 A2988 RMK AO1 SLP147
METAR CYNL 170600Z AUTO 27002KT 9SM CLR M05/M07 A2987 RMK AO1 SLP147
METAR CYNL 170500Z AUTO 24002KT 9SM CLR M04/M06 A2987 RMK AO1 SLP145
METAR CYNL 170400Z AUTO 00000KT 9SM CLR M03/M06 A2987 RMK AO1 SLP145
METAR CYNL 170300Z AUTO 00000KT 9SM CLR M01/M06 A2987 RMK AO1 SLP143
METAR CYNL 170200Z AUTO 28004KT 9SM CLR 02/M06 A2987 RMK AO1 SLP140
METAR CYNL 170100Z AUTO 29006KT 9SM CLR 04/M05 A2987 RMK AO1 SLP137
METAR CYNL 170000Z AUTO 28006KT 9SM CLR 04/M05 A2987 RMK AO1 SLP137
METAR CYNL 162300Z AUTO 27007KT 9SM CLR 04/M05 A2986 RMK AO1 SLP136
METAR CYNL 162200Z AUTO 31007KT 9SM CLR 03/M05 A2985 RMK AO1 SLP134
METAR CYNL 162100Z AUTO 30010KT 260V330 9SM CLR 03/M04 A2984 RMK AO1 SLP131
METAR CYNL 162000Z AUTO 31012KT 9SM SCT021 03/M04 A2983 RMK AO1 SLP125
SPECI CYNL 161942Z AUTO 31007G15KT 9SM SCT021 02/M04 A2983 RMK AO1 SLP127
SPECI CYNL 161938Z AUTO 31009G15KT 9SM BKN022 02/M04 A2983 RMK AO1 SLP126
METAR CYNL 161900Z AUTO 30011G17KT 9SM FEW022 02/M05 A2982 RMK AO1 SLP124
SPECI CYNL 161844Z AUTO 32007KT 9SM SCT021 02/M04 A2982 RMK AO1 SLP124
METAR CYNL 161800Z AUTO 29008KT 9SM OVC017 01/M04 A2981 RMK AO1 SLP123
SPECI CYNL 161712Z AUTO 30009KT 9SM OVC015 00/M04 A2980 RMK AO1 SLP119
METAR CYNL 161700Z AUTO 31006KT 9SM OVC014 00/M04 A2980 RMK AO1 SLP119
METAR CYNL 161600Z AUTO 30006KT 9SM OVC013 M00/M04 A2979 RMK AO1 SLP116
METAR CYNL 161500Z AUTO 31007KT 9SM OVC011 M00/M04 A2978 RMK AO1 SLP111
SPECI CYNL 161410Z AUTO 31010G17KT 9SM FEW008 BKN010 OVC018 M01/M03 A2976 RMK AO1 SLP105
SPECI CYNL 161409Z AUTO 31012KT 9SM BKN010 OVC018 M01/M03 A2976 RMK AO1 SLP105
METAR CYNL 161400Z AUTO 30008KT 9SM BKN009 OVC018 M01/M03 A2976 RMK AO1 SLP104
SPECI CYNL 161338Z AUTO 32008KT 3SM BKN009 OVC017 M01/M03 A2975 RMK AO1 SLP101
SPECI CYNL 161335Z AUTO 31010KT 2 1/2SM BKN009 OVC017 M01/M03 A2975 RMK AO1 SLP101
METAR CYNL 161300Z AUTO 32007KT 9SM OVC007 M01/M02 A2974 RMK AO1 SLP097
METAR CYNL 161200Z AUTO 31008KT 9SM OVC006 M00/M02 A2973 RMK AO1 SLP091
METAR CYNL 161100Z AUTO 33006KT 9SM OVC008 M00/M02 A2971 RMK AO1 PRESRR SLP085
METAR CYNL 161000Z AUTO 33009KT 9SM BKN009 OVC011 M00/M02 A2969 RMK AO1 SLP078
SPECI CYNL 160953Z AUTO 32006KT 9SM BKN009 OVC010 M00/M02 A2969 RMK AO1 SLP076
SPECI CYNL 160936Z AUTO 32005KT 9SM FEW009 BKN011 M00/M02 A2969 RMK AO1 SLP076
SPECI CYNL 160935Z AUTO 31005KT 9SM FEW009 SCT011 BKN046 00/M02 A2969 RMK AO1 SLP076
SPECI CYNL 160910Z AUTO 31006KT 9SM FEW011 SCT015 BKN034 00/M01 A2968 RMK AO1 SLP072
METAR CYNL 160900Z AUTO 32007KT 9SM FEW011 BKN015 OVC032 01/M01 A2968 RMK AO1 SLP071
SPECI CYNL 160842Z AUTO 32006KT 9SM SCT021 OVC031 01/M01 A2967 RMK AO1 SLP069
SPECI CYNL 160833Z AUTO 31005KT 9SM SCT019 OVC027 01/M01 A2967 RMK AO1 SLP068
SPECI CYNL 160831Z AUTO 31005KT 9SM SCT019 BKN024 OVC030 01/M01 A2967 RMK AO1 SLP068
SPECI CYNL 160829Z AUTO 31007KT 9SM SCT019 BKN025 OVC033 01/M01 A2967 RMK AO1 SLP068
METAR CYNL 160800Z AUTO 30004KT 9SM OVC019 01/M01 A2966 RMK AO1 SLP065
SPECI CYNL 160705Z AUTO 30003KT 9SM BKN021 BKN027 OVC056 M00/M01 A2964 RMK AO1 SLP060
SPECI CYNL 160701Z AUTO 33003KT 9SM SCT021 BKN028 OVC056 M00/M01 A2964 RMK AO1 SLP059
METAR CYNL 160700Z AUTO 34003KT 9SM BKN021 BKN028 OVC056 M00/M01 A2964 RMK AO1 SLP059
SPECI CYNL 160651Z AUTO 33003KT 9SM BKN021 OVC056 M00/M01 A2964 RMK AO1 SLP059
SPECI CYNL 160649Z AUTO 33003KT 9SM SCT021 BKN029 OVC056 M00/M01 A2964 RMK AO1 SLP059
SPECI CYNL 160638Z AUTO 33002KT 9SM SCT021 BKN043 OVC056 M01/M02 A2964 RMK AO1 SLP059
SPECI CYNL 160637Z AUTO 33002KT 9SM SCT021 BKN029 OVC056 M01/M02 A2964 RMK AO1 SLP059
SPECI CYNL 160627Z AUTO 00000KT 9SM SCT021 BKN042 OVC058 M01/M01 A2964 RMK AO1 SLP057
SPECI CYNL 160616Z AUTO 00000KT 9SM BKN021 BKN060 M01/M02 A2964 RMK AO1 SLP057
METAR CYNL 160600Z AUTO 00000KT 9SM SCT045 BKN060 M00/M01 A2964 RMK AO1 SLP057
METAR CYNL 160500Z AUTO 03003KT 9SM SCT016 BKN058 M01/M02 A2963 RMK AO1 SLP054
METAR CYNL 160400Z AUTO 35002KT 9SM CLR M00/M01 A2963 RMK AO1 SLP052
METAR CYNL 160300Z AUTO 00000KT 9SM CLR 01/M00 A2962 RMK AO1 SLP049
METAR CYNL 160200Z AUTO 00000KT 9SM FEW052 02/01 A2961 RMK AO1 SLP047
METAR CYNL 160100Z AUTO 09004KT 9SM CLR 03/01 A2960 RMK AO1 SLP046
METAR CYNL 160000Z AUTO 09004KT 9SM FEW072 03/01 A2959 RMK AO1 SLP045
METAR CYNL 152300Z AUTO 08006KT 9SM OVC066 03/00 A2958 RMK AO1 SLP041
METAR CYNL 152200Z AUTO 08008KT 9SM FEW020 04/M00 A2957 RMK AO1 SLP034
SPECI CYNL 152148Z AUTO 09007KT 9SM SCT020 BKN160 05/M00 A2956 RMK AO1 SLP032
SPECI CYNL 152118Z AUTO 08007KT 9SM BKN021 05/M00 A2955 RMK AO1 SLP028
METAR CYNL 152100Z AUTO 08007KT 9SM SCT022 BKN210 05/M00 A2955 RMK AO1 SLP027
SPECI CYNL 152058Z AUTO 08007KT 9SM BKN022 05/M00 A2955 RMK AO1 SLP026
SPECI CYNL 152056Z AUTO 08007KT 9SM SCT022 BKN210 05/M00 A2955 RMK AO1 SLP026
METAR CYNL 152000Z AUTO 12004KT 9SM BKN022 05/M00 A2953 RMK AO1 SLP020
SPECI CYNL 151942Z AUTO 10006KT 9SM BKN024 05/M00 A2953 RMK AO1 SLP020
METAR CYNL 151900Z AUTO 08003KT 9SM BKN028 06/M01 A2952 RMK AO1 SLP018
SPECI CYNL 151853Z AUTO 09007KT 9SM BKN028 06/M01 A2953 RMK AO1 SLP018
SPECI CYNL 151848Z AUTO 07009KT 9SM SCT028 06/M01 A2952 RMK AO1 SLP017
SPECI CYNL 151843Z AUTO 08008KT 9SM BKN029 06/M01 A2952 RMK AO1 SLP017
SPECI CYNL 151841Z AUTO 08005KT 9SM SCT029 06/M01 A2952 RMK AO1 SLP017
SPECI CYNL 151837Z AUTO 11003KT 9SM BKN029 06/M01 A2952 RMK AO1 SLP016
SPECI CYNL 151833Z AUTO 12004KT 9SM SCT029 06/M01 A2952 RMK AO1 SLP016
SPECI CYNL 151832Z AUTO 11005KT 9SM BKN029 06/M01 A2952 RMK AO1 SLP016
METAR CYNL 151800Z AUTO 15005KT 9SM CLR 07/M01 A2952 RMK AO1 SLP014
METAR CYNL 151700Z AUTO 11008KT 9SM CLR 06/M01 A2952 RMK AO1 SLP013
METAR CYNL 151600Z AUTO 15004KT 9SM CLR 05/M03 A2951 RMK AO1 SLP012
METAR CYNL 151500Z AUTO 15002KT 9SM CLR 03/M04 A2952 RMK AO1 SLP011
METAR CYNL 151400Z AUTO 11004KT 9SM CLR 02/M05 A2951 RMK AO1 SLP010
METAR CYNL 151300Z AUTO 00000KT 9SM CLR M00/M05 A2950 RMK AO1 SLP010
METAR CYNL 151200Z AUTO 00000KT 9SM CLR M01/M04 A2949 RMK AO1 SLP006
METAR CYNL 151100Z AUTO 00000KT 9SM CLR M00/M03 A2950 RMK AO1 SLP006
METAR CYNL 151000Z AUTO 05003KT 9SM CLR M00/M03 A2949 RMK AO1 SLP003
METAR CYNL 150900Z AUTO 00000KT 9SM CLR 00/M03 A2949 RMK AO1 SLP002
METAR CYNL 150800Z AUTO 00000KT 9SM CLR 00/M02 A2949 RMK AO1 SLP001
METAR CYNL 150700Z AUTO 33003KT 9SM CLR 00/M02 A2949 RMK AO1 SLP003
METAR CYNL 150600Z AUTO 00000KT 9SM CLR 02/M02 A2950 RMK AO1 SLP004
METAR CYNL 150500Z AUTO VRB04KT 9SM FEW120 03/M01 A2950 RMK AO1 SLP004
METAR CYNL 150400Z AUTO 33002KT 9SM BKN086 05/M01 A2949 RMK AO1 SLP998
METAR CYNL 150300Z AUTO 30003KT 9SM CLR 07/M01 A2949 RMK AO1 SLP998
METAR CYNL 150200Z AUTO 01003KT 9SM CLR 07/M06 A2949 RMK AO1 SLP003
METAR CYNL 150100Z AUTO 35002KT 9SM CLR 08/M07 A2949 RMK AO1 SLP005
METAR CYNL 150000Z AUTO 05005KT 9SM CLR 08/M06 A2950 RMK AO1 SLP008
METAR CYNL 142300Z AUTO 09005KT 9SM SCT068 09/M06 A2949 RMK AO1 SLP007
METAR CYNL 142200Z AUTO 15007KT 9SM CLR 09/M06 A2949 RMK AO1 SLP007
METAR CYNL 142100Z AUTO 16007KT 9SM FEW033 SCT200 09/M02 A2949 RMK AO1 SLP004
SPECI CYNL 142051Z AUTO 16011G17KT 9SM FEW009 09/M01 A2949 RMK AO1 SLP004
METAR CYNL 142000Z AUTO 15009G18KT 9SM CLR 09/M04 A2949 RMK AO1 SLP005
METAR CYNL 141900Z AUTO 12011KT 9SM FEW150 08/M06 A2949 RMK AO1 SLP007
METAR CYNL 141800Z AUTO 13009G15KT 9SM FEW190 08/M07 A2951 RMK AO1 SLP008
METAR CYNL 141700Z AUTO 10010KT 9SM CLR 07/M07 A2950 RMK AO1 SLP005
METAR CYNL 141600Z AUTO 13004KT 9SM CLR 06/M07 A2952 RMK AO1 PRESFR SLP011
METAR CYNL 141500Z AUTO 14005KT 9SM FEW110 03/M07 A2954 RMK AO1 SLP022
METAR CYNL 141400Z AUTO 12004KT 9SM BKN098 M00/M08 A2955 RMK AO1 SLP027
METAR CYNL 141300Z AUTO 12004KT 9SM CLR M01/M08 A2956 RMK AO1 SLP028
METAR CYNL 141200Z AUTO 08002KT 9SM CLR M04/M09 A2957 RMK AO1 SLP032
METAR CYNL 141100Z AUTO 15002KT 9SM CLR M03/M09 A2958 RMK AO1 SLP033
METAR CYNL 141000Z AUTO 00000KT 9SM CLR M02/M09 A2958 RMK AO1 SLP033
METAR CYNL 140900Z AUTO 00000KT 9SM CLR M02/M09 A2958 RMK AO1 SLP035
METAR CYNL 140800Z AUTO 00000KT 9SM CLR M02/M09 A2959 RMK AO1 SLP036
METAR CYNL 140700Z AUTO 15003KT 9SM CLR 01/M08 A2960 RMK AO1 SLP036
METAR CYNL 140600Z AUTO 14003KT 9SM CLR 02/M09 A2960 RMK AO1 SLP037
METAR CYNL 140500Z AUTO 16005KT 9SM CLR 04/M09 A2961 RMK AO1 SLP038
METAR CYNL 140400Z AUTO 16004KT 9SM CLR 04/M08 A2962 RMK AO1 SLP041
METAR CYNL 140300Z AUTO 16003KT 9SM CLR 05/M08 A2963 RMK AO1 SLP046
METAR CYNL 140200Z AUTO 16004KT 9SM CLR 07/M09 A2963 RMK AO1 SLP048
METAR CYNL 140100Z AUTO 18006KT 9SM CLR 09/M09 A2964 RMK AO1 SLP051
METAR CYNL 140000Z AUTO 20007KT 9SM CLR 11/M10 A2964 RMK AO1 SLP056
METAR CYNL 132300Z AUTO 19011G16KT 9SM CLR 11/M09 A2965 RMK AO1 SLP063
METAR CYNL 132200Z AUTO 20009KT 9SM CLR 11/M08 A2966 RMK AO1 SLP063
METAR CYNL 132100Z AUTO 20010KT 9SM CLR 11/M08 A2966 RMK AO1 SLP062
METAR CYNL 132000Z AUTO 22008G15KT 9SM CLR 11/M08 A2967 RMK AO1 SLP067
METAR CYNL 131900Z AUTO 20010G16KT 9SM CLR 11/M07 A2968 RMK AO1 SLP069
METAR CYNL 131800Z AUTO 19008G15KT 9SM CLR 10/M08 A2968 RMK AO1 SLP069
METAR CYNL 131700Z AUTO 23009KT 9SM CLR 10/M07 A2969 RMK AO1 SLP072
METAR CYNL 131600Z AUTO 18006KT 9SM CLR 08/M06 A2970 RMK AO1 SLP076
METAR CYNL 131500Z AUTO 19006KT 9SM CLR 05/M07 A2971 RMK AO1 SLP079
METAR CYNL 131400Z AUTO 21002KT 9SM CLR 02/M06 A2972 RMK AO1 SLP084
METAR CYNL 131300Z AUTO 20002KT 9SM CLR M02/M06 A2973 RMK AO1 SLP088
METAR CYNL 131200Z AUTO 00000KT 9SM CLR M06/M08 A2974 RMK AO1 SLP094
METAR CYNL 131100Z AUTO 00000KT 9SM CLR M04/M07 A2976 RMK AO1 SLP096
METAR CYNL 131000Z AUTO 20004KT 9SM CLR M04/M06 A2977 RMK AO1 SLP099
METAR CYNL 130900Z AUTO 24003KT 9SM CLR M04/M07 A2977 RMK AO1 SLP100
METAR CYNL 130800Z AUTO 21003KT 9SM CLR M03/M07 A2978 RMK AO1 SLP104
METAR CYNL 130700Z AUTO 23003KT 9SM CLR M03/M06 A2979 RMK AO1 SLP105
METAR CYNL 130600Z AUTO 21003KT 9SM CLR M02/M06 A2980 RMK AO1 SLP110
METAR CYNL 130500Z AUTO 00000KT 9SM CLR M02/M05 A2981 RMK AO1 SLP115
METAR CYNL 130400Z AUTO 25004KT 9SM CLR 01/M07 A2983 RMK AO1 SLP118
METAR CYNL 130300Z AUTO 23003KT 9SM CLR 02/M07 A2984 RMK AO1 SLP123
METAR CYNL 130200Z AUTO 21002KT 9SM CLR 07/M07 A2985 RMK AO1 SLP124
METAR CYNL 130100Z AUTO 26005KT 9SM CLR 10/M07 A2986 RMK AO1 SLP125
METAR CYNL 130000Z AUTO 24008KT 9SM CLR 11/M06 A2986 RMK AO1 SLP126
METAR CYNL 122300Z AUTO 23009KT 9SM CLR 12/M06 A2987 RMK AO1 SLP129
METAR CYNL 122200Z AUTO 24007KT 9SM CLR 12/M06 A2988 RMK AO1 SLP135
METAR CYNL 122100Z AUTO 23008KT 9SM CLR 11/M05 A2990 RMK AO1 SLP139
METAR CYNL 122000Z AUTO 21006KT 9SM CLR 10/M05 A2992 RMK AO1 SLP146
METAR CYNL 121900Z AUTO 20006KT 9SM FEW068 SCT086 09/M05 A2993 RMK AO1 SLP151
METAR CYNL 121800Z AUTO 21006KT 9SM CLR 09/M05 A2995 RMK AO1 SLP157
METAR CYNL 121700Z AUTO 19007KT 9SM CLR 08/M05 A2996 RMK AO1 SLP165
METAR CYNL 121600Z AUTO 23004KT 9SM CLR 06/M05 A2998 RMK AO1 SLP170
METAR CYNL 121500Z AUTO 18005KT 9SM CLR 04/M04 A3000 RMK AO1 SLP178
METAR CYNL 121400Z AUTO 21006KT 9SM CLR 02/M05 A3001 RMK AO1 SLP186
METAR CYNL 121300Z AUTO 21005KT 9SM FEW088 01/M06 A3003 RMK AO1 SLP190
METAR CYNL 121200Z AUTO 21002KT 9SM FEW080 M00/M05 A3003 RMK AO1 SLP192
METAR CYNL 121100Z AUTO 21005KT 9SM BKN058 01/M05 A3004 RMK AO1 SLP194
METAR CYNL 121000Z AUTO 20005KT 9SM BKN056 02/M05 A3005 RMK AO1 SLP197
METAR CYNL 120900Z AUTO 22005KT 9SM SCT054 OVC084 02/M05 A3006 RMK AO1 SLP199
METAR CYNL 120800Z AUTO 22008KT 9SM OVC078 02/M05 A3007 RMK AO1 SLP204
METAR CYNL 120700Z AUTO 21008KT 9SM OVC074 03/M05 A3008 RMK AO1 SLP208
METAR CYNL 120600Z AUTO 20006KT 9SM CLR 02/M05 A3009 RMK AO1 SLP214
METAR CYNL 120500Z AUTO 19007KT 9SM OVC064 03/M05 A3010 RMK AO1 SLP217
METAR CYNL 120400Z AUTO 18008KT 9SM OVC060 03/M05 A3010 RMK AO1 SLP218
METAR CYNL 120300Z AUTO 18005KT 9SM BKN060 03/M04 A3011 RMK AO1 SLP220
METAR CYNL 120200Z AUTO 18006KT 9SM BKN050 04/M04 A3010 RMK AO1 SLP218
METAR CYNL 120100Z AUTO 18006KT 9SM BKN048 OVC060 05/M04 A3010 RMK AO1 SLP217
METAR CYNL 120000Z AUTO 18007KT 9SM BKN052 06/M04 A3010 RMK AO1 SLP214
METAR CYNL 112300Z AUTO 18011KT 9SM BKN062 05/M04 A3011 RMK AO1 SLP219
METAR CYNL 112200Z AUTO 17011G18KT 9SM BKN068 06/M04 A3011 RMK AO1 SLP221
METAR CYNL 112100Z AUTO 18011KT 9SM BKN062 05/M04 A3012 RMK AO1 SLP226
METAR CYNL 112000Z AUTO 17010KT 9SM SCT070 BKN100 04/M05 A3013 RMK AO1 SLP230
METAR CYNL 111900Z AUTO 16011G17KT 9SM BKN074 03/M04 A3013 RMK AO1 SLP230
METAR CYNL 111800Z AUTO 15005KT 9SM FEW020 SCT050 01/M03 A3013 RMK AO1 PRESFR SLP230
SPECI CYNL 111722Z AUTO 14009KT 5SM FEW005 SCT016 01/M03 A3013 RMK AO1 SLP232
SPECI CYNL 111721Z AUTO 14009KT 1 1/4SM FEW005 SCT016 01/M03 A3013 RMK AO1 SLP232
SPECI CYNL 111719Z AUTO 14010KT 1/2SM VV013 01/M03 A3014 RMK AO1 SLP233
SPECI CYNL 111718Z AUTO 14010KT 1/2SM FEW016 SCT046 01/M04 A3014 RMK AO1 SLP233
SPECI CYNL 111716Z AUTO 14009KT 1 3/4SM FEW017 SCT048 01/M04 A3014 RMK AO1 SLP234
SPECI CYNL 111715Z AUTO 15009KT 2 1/2SM FEW018 SCT230 01/M04 A3014 RMK AO1 SLP234
SPECI CYNL 111712Z AUTO 15008KT 3SM FEW049 01/M04 A3014 RMK AO1 SLP235
SPECI CYNL 111710Z AUTO 16009KT 2SM FEW049 SCT230 01/M04 A3014 RMK AO1 SLP235
METAR CYNL 111700Z AUTO 16008KT 9SM SCT049 01/M04 A3014 RMK AO1 SLP236
SPECI CYNL 111638Z AUTO 16008KT 9SM FEW004 SCT007 BKN050 00/M03 A3015 RMK AO1 SLP238
SPECI CYNL 111637Z AUTO 16009KT 9SM FEW004 SCT007 BKN019 00/M03 A3015 RMK AO1 SLP238
SPECI CYNL 111632Z AUTO 15010KT 3SM FEW004 SCT007 BKN012 00/M03 A3014 RMK AO1 SLP236
SPECI CYNL 111630Z AUTO 15009KT 2SM SCT006 BKN012 00/M03 A3014 RMK AO1 SLP237
SPECI CYNL 111627Z AUTO 16008KT 3SM SCT007 BKN012 00/M03 A3015 RMK AO1 SLP238
SPECI CYNL 111626Z AUTO 16006KT 2SM SCT006 BKN014 00/M03 A3015 RMK AO1 SLP237
SPECI CYNL 111625Z AUTO 15006KT 1 1/2SM VV006 00/M03 A3014 RMK AO1 SLP237
SPECI CYNL 111623Z AUTO 15006KT 1SM VV007 00/M03 A3014 RMK AO1 SLP236
SPECI CYNL 111621Z AUTO 14007KT 3/4SM VV008 00/M03 A3014 RMK AO1 SLP236
SPECI CYNL 111616Z AUTO 16009KT 1/2SM VV009 00/M04 A3015 RMK AO1 SLP237
SPECI CYNL 111613Z AUTO 16011KT 5/8SM VV013 01/M04 A3015 RMK AO1 SLP238
SPECI CYNL 111612Z AUTO 16011KT 3/4SM VV015 01/M04 A3015 RMK AO1 SLP238
SPECI CYNL 111610Z AUTO 16011KT 2 1/2SM FEW014 BKN022 01/M05 A3015 RMK AO1 SLP239
METAR CYNL 111600Z AUTO 17009KT 9SM BKN023 01/M05 A3016 RMK AO1 SLP240
SPECI CYNL 111549Z AUTO 17009KT 9SM BKN024 01/M05 A3016 RMK AO1 SLP242
METAR CYNL 111500Z AUTO 15011KT 9SM CLR M00/M06 A3016 RMK AO1 SLP242
METAR CYNL 111400Z AUTO 15007KT 9SM CLR M01/M06 A3016 RMK AO1 SLP244
METAR CYNL 111300Z AUTO 17007KT 9SM SCT030 M01/M06 A3017 RMK AO1 SLP245
METAR CYNL 111200Z AUTO 17006KT 9SM FEW078 M01/M07 A3017 RMK AO1 SLP245
METAR CYNL 111100Z AUTO 17006KT 9SM FEW086 M01/M06 A3017 RMK AO1 SLP243
METAR CYNL 111000Z AUTO 17008KT 9SM FEW086 M01/M06 A3016 RMK AO1 SLP240
METAR CYNL 110900Z AUTO 17007KT 9SM FEW110 M01/M07 A3017 RMK AO1 SLP243
METAR CYNL 110800Z AUTO 17006KT 9SM SCT086 M00/M06 A3018 RMK AO1 SLP243
METAR CYNL 110700Z AUTO 17006KT 9SM OVC100 M00/M06 A3018 RMK AO1 SLP243
METAR CYNL 110600Z AUTO 17006KT 9SM FEW090 00/M06 A3017 RMK AO1 SLP245
METAR CYNL 110500Z AUTO 15008KT 9SM SCT100 BKN140 M00/M04 A3017 RMK AO1 SLP246
METAR CYNL 110400Z AUTO 15006KT 9SM CLR M00/M03 A3018 RMK AO1 SLP248
METAR CYNL 110300Z AUTO 16009KT 9SM CLR 01/M03 A3018 RMK AO1 SLP247
METAR CYNL 110200Z AUTO 15007KT 9SM CLR 01/M03 A3017 RMK AO1 SLP245
METAR CYNL 110100Z AUTO 17009KT 9SM FEW068 02/M03 A3017 RMK AO1 SLP248
METAR CYNL 110000Z AUTO 18012G18KT 9SM SCT066 03/M02 A3017 RMK AO1 SLP249
METAR CYNL 102300Z AUTO 17013KT 9SM FEW033 04/M04 A3017 RMK AO1 SLP246
METAR CYNL 102200Z AUTO 17012KT 9SM FEW042 SCT072 04/M04 A3016 RMK AO1 SLP244
METAR CYNL 102100Z AUTO 17012G19KT 9SM FEW200 05/M04 A3017 RMK AO1 SLP244
METAR CYNL 102000Z AUTO 17010G17KT 9SM FEW027 04/M05 A3016 RMK AO1 SLP242
SPECI CYNL 101944Z AUTO 17009G16KT 9SM SCT026 04/M05 A3016 RMK AO1 SLP244
SPECI CYNL 101921Z AUTO 13012KT 9SM OVC025 03/M04 A3016 RMK AO1 SLP245
METAR CYNL 101900Z AUTO 16014G19KT 9SM OVC022 02/M04 A3016 RMK AO1 SLP246
METAR CYNL 101800Z AUTO 17010G19KT 9SM OVC023 01/M06 A3018 RMK AO1 SLP253
SPECI CYNL 101705Z AUTO 18011G22KT 9SM BKN023 02/M07 A3018 RMK AO1 PRESFR SLP251
SPECI CYNL 101702Z AUTO 17013G22KT 9SM SCT023 01/M06 A3018 RMK AO1 PRESFR SLP251
METAR CYNL 101700Z AUTO 17012G22KT 9SM BKN023 01/M07 A3017 RMK AO1 PRESFR SLP251
SPECI CYNL 101643Z AUTO 16015KT 9SM BKN023 BKN039 01/M07 A3018 RMK AO1 SLP253
SPECI CYNL 101601Z AUTO 17008G19KT 9SM SCT028 BKN041 00/M07 A3020 RMK AO1 SLP259
METAR CYNL 101600Z AUTO 17008G19KT 9SM BKN028 00/M07 A3020 RMK AO1 SLP259
METAR CYNL 101500Z AUTO 17012G17KT 9SM OVC027 M02/M08 A3021 RMK AO1 SLP266
SPECI CYNL 101429Z AUTO 17011G16KT 9SM OVC025 M03/M08 A3022 RMK AO1 PRESRR SLP267
METAR CYNL 101300Z AUTO 15007KT 9SM FEW018 M04/M09 A3020 RMK AO1 SLP262
METAR CYNL 101200Z AUTO 16009KT 9SM CLR M05/M09 A3020 RMK AO1 SLP262
METAR CYNL 101100Z AUTO 16008KT 9SM FEW028 BKN080 M04/M07 A3021 RMK AO1 SLP264
SPECI CYNL 101043Z AUTO 17007KT 9SM SCT027 BKN084 BKN140 M04/M07 A3020 RMK AO1 SLP262
SPECI CYNL 101033Z AUTO 18012KT 9SM BKN026 M04/M07 A3020 RMK AO1 SLP262
METAR CYNL 101000Z AUTO 18009G16KT 9SM FEW084 M03/M08 A3021 RMK AO1 SLP261
SPECI CYNL 100906Z AUTO 17009KT 9SM FEW007 SCT066 M04/M08 A3021 RMK AO1 SLP262
METAR CYNL 100900Z AUTO 17006KT 9SM FEW010 SCT026 BKN080 M04/M08 A3021 RMK AO1 SLP264
SPECI CYNL 100854Z AUTO 15006KT 9SM FEW010 SCT016 BKN066 M04/M08 A3021 RMK AO1 SLP264
SPECI CYNL 100851Z AUTO 15006KT 9SM FEW009 SCT016 BKN026 M04/M08 A3021 RMK AO1 SLP264
SPECI CYNL 100841Z AUTO 15007KT 6SM FEW009 SCT012 BKN017 M04/M07 A3021 RMK AO1 SLP265
SPECI CYNL 100840Z AUTO 15007KT 3SM VV013 M04/M07 A3022 RMK AO1 SLP265
SPECI CYNL 100839Z AUTO 14007KT 2SM VV012 M04/M07 A3022 RMK AO1 SLP266
SPECI CYNL 100836Z AUTO 14007KT 1SM VV010 M04/M07 A3022 RMK AO1 SLP266
SPECI CYNL 100835Z AUTO 15007KT 3/4SM VV010 M04/M07 A3022 RMK AO1 SLP266
SPECI CYNL 100834Z AUTO 15007KT 5/8SM VV010 M04/M07 A3022 RMK AO1 SLP267
SPECI CYNL 100833Z AUTO 16007KT 1/2SM VV009 M04/M07 A3022 RMK AO1 SLP267
SPECI CYNL 100830Z AUTO 17006KT 5/8SM VV011 M04/M08 A3022 RMK AO1 SLP268
SPECI CYNL 100829Z AUTO 17006KT 1 1/4SM VV012 M04/M08 A3022 RMK AO1 SLP268
SPECI CYNL 100828Z AUTO 16006KT 1 3/4SM VV014 M04/M08 A3022 RMK AO1 SLP268
SPECI CYNL 100827Z AUTO 17006KT 3SM VV015 M04/M08 A3022 RMK AO1 SLP268
METAR CYNL 100800Z AUTO 16007KT 9SM FEW090 M05/M09 A3022 RMK AO1 SLP269
METAR CYNL 100700Z AUTO 15008KT 9SM SCT084 M04/M09 A3022 RMK AO1 SLP267
METAR CYNL 100600Z AUTO 14005KT 9SM BKN090 M05/M09 A3021 RMK AO1 SLP267
METAR CYNL 100500Z AUTO 15005KT 9SM CLR M04/M09 A3021 RMK AO1 SLP265
METAR CYNL 100400Z AUTO 16009KT 9SM CLR M03/M08 A3021 RMK AO1 SLP265
METAR CYNL 100300Z AUTO 16009KT 9SM SCT076 M02/M08 A3019 RMK AO1 SLP261
SPECI CYNL 100209Z AUTO 16009KT 9SM OVC030 M02/M08 A3019 RMK AO1 SLP260
METAR CYNL 100200Z AUTO 16011KT 9SM OVC029 M01/M08 A3019 RMK AO1 SLP260
METAR CYNL 100100Z AUTO 15010G17KT 9SM OVC029 M01/M08 A3018 RMK AO1 SLP260
SPECI CYNL 100001Z AUTO 16009KT 9SM BKN029 M01/M08 A3019 RMK AO1 SLP262
METAR CYNL 100000Z AUTO 16009KT 9SM SCT029 M01/M08 A3019 RMK AO1 SLP262
METAR CYNL 092300Z AUTO 17012KT 9SM FEW032 00/M07 A3018 RMK AO1 SLP260
METAR CYNL 092200Z AUTO 17014G19KT 9SM CLR 00/M08 A3018 RMK AO1 SLP259
METAR CYNL 092100Z AUTO 18012G20KT 9SM FEW210 00/M07 A3019 RMK AO1 SLP260
METAR CYNL 092000Z AUTO 17011G18KT 9SM CLR M00/M08 A3019 RMK AO1 SLP260
SPECI CYNL 091914Z AUTO 15011G16KT 9SM SCT026 M01/M08 A3020 RMK AO1 SLP265
METAR CYNL 091900Z AUTO 15013KT 9SM BKN025 M02/M08 A3020 RMK AO1 SLP266
SPECI CYNL 091854Z AUTO 16010G17KT 9SM BKN025 M02/M08 A3020 RMK AO1 SLP267
SPECI CYNL 091839Z AUTO 16011G18KT 9SM SCT023 M02/M08 A3020 RMK AO1 SLP268
SPECI CYNL 091838Z AUTO 16011G18KT 9SM BKN023 M02/M08 A3020 RMK AO1 SLP268
METAR CYNL 091800Z AUTO 14010G15KT 9SM FEW022 SCT210 M03/M09 A3020 RMK AO1 SLP269
METAR CYNL 091700Z AUTO 15012KT 9SM FEW019 SCT210 M03/M09 A3020 RMK AO1 SLP269
METAR CYNL 091600Z AUTO 15009KT 7SM FEW015 M04/M09 A3020 RMK AO1 SLP271
METAR CYNL 091500Z AUTO 15010KT 6SM CLR M06/M09 A3020 RMK AO1 SLP270
METAR CYNL 091400Z AUTO 15009KT 9SM FEW008 M07/M10 A3020 RMK AO1 SLP268
SPECI CYNL 091315Z AUTO 14008KT 9SM FEW007 M08/M10 A3019 RMK AO1 SLP267
METAR CYNL 091300Z AUTO 14008KT 9SM FEW020 M08/M10 A3019 RMK AO1 SLP267
SPECI CYNL 091248Z AUTO 14008KT 9SM SCT020 M08/M10 A3019 RMK AO1 SLP265
SPECI CYNL 091237Z AUTO 14008KT 9SM BKN020 M09/M11 A3019 RMK AO1 SLP265
METAR CYNL 091200Z AUTO 14008KT 9SM CLR M09/M11 A3018 RMK AO1 SLP263
METAR CYNL 091100Z AUTO 14006KT 9SM CLR M09/M11 A3018 RMK AO1 SLP260
METAR CYNL 091000Z AUTO 13007KT 9SM CLR M08/M11 A3017 RMK AO1 SLP256
METAR CYNL 090900Z AUTO 13006KT 9SM CLR M08/M11 A3016 RMK AO1 SLP253
SPECI CYNL 090832Z AUTO 13006KT 9SM SCT028 M08/M11 A3016 RMK AO1 SLP254
SPECI CYNL 090823Z AUTO 13006KT 9SM BKN028 M08/M12 A3016 RMK AO1 SLP254
METAR CYNL 090800Z AUTO 13006KT 9SM CLR M08/M12 A3016 RMK AO1 SLP254
METAR CYNL 090700Z AUTO 13005KT 9SM CLR M08/M12 A3015 RMK AO1 SLP251
METAR CYNL 090600Z AUTO 13006KT 9SM CLR M08/M12 A3013 RMK AO1 SLP245
METAR CYNL 090500Z AUTO 12004KT 9SM CLR M07/M12 A3013 RMK AO1 SLP245
METAR CYNL 090400Z AUTO 13004KT 9SM CLR M06/M11 A3012 RMK AO1 SLP242
METAR CYNL 090300Z AUTO 12006KT 9SM CLR M05/M11 A3011 RMK AO1 SLP239
METAR CYNL 090200Z AUTO 13005KT 9SM CLR M04/M11 A3010 RMK AO1 SLP237
METAR CYNL 090100Z AUTO 13010KT 9SM CLR M03/M11 A3009 RMK AO1 SLP233
METAR CYNL 090000Z AUTO 12012KT 9SM CLR M02/M11 A3007 RMK AO1 SLP228
METAR CYNL 082300Z AUTO 13011G18KT 9SM CLR M01/M10 A3006 RMK AO1 SLP221
METAR CYNL 082200Z AUTO 11011KT 9SM CLR M01/M10 A3005 RMK AO1 SLP219
SPECI CYNL 082138Z AUTO 13010KT 9SM CLR M02/M10 A3005 RMK AO1 WSHFT (21)38 SLP218
METAR CYNL 082100Z AUTO 12010G17KT 9SM CLR M02/M11 A3004 RMK AO1 SLP216
SPECI CYNL 082045Z AUTO 11011KT 9SM FEW220 M02/M11 A3004 RMK AO1 WSHFT (20)45 SLP216
METAR CYNL 082000Z AUTO 13006KT 9SM CLR M02/M11 A3004 RMK AO1 SLP213
METAR CYNL 081900Z AUTO 13010G15KT 9SM CLR M03/M11 A3003 RMK AO1 SLP214
METAR CYNL 081800Z AUTO 13008KT 9SM CLR M04/M12 A3003 RMK AO1 SLP213
METAR CYNL 081700Z AUTO 13010KT 9SM FEW210 M06/M13 A3002 RMK AO1 SLP212
METAR CYNL 081600Z AUTO 15009KT 9SM BKN036 M08/M13 A3001 RMK AO1 SLP211
METAR CYNL 081500Z AUTO 14008KT 9SM CLR M09/M14 A3001 RMK AO1 SLP211
METAR CYNL 081400Z AUTO 12009KT 9SM OVC100 M10/M14 A3000 RMK AO1 SLP208
METAR CYNL 081300Z AUTO ///// 9SM FEW100 M12/M15 A2998 RMK AO1 SLP204
SPECI CYNL 081204Z AUTO ///// 9SM SCT011 BKN096 M11/M14 A2997 RMK AO1 SLP199
METAR CYNL 081200Z AUTO ///// 9SM BKN012 M11/M14 A2997 RMK AO1 SLP199
SPECI CYNL 081157Z AUTO ///// 9SM BKN012 M11/M14 A2997 RMK AO1 SLP197
SPECI CYNL 081147Z AUTO 10006KT 9SM SCT011 BKN096 M11/M14 A2997 RMK AO1 SLP197
SPECI CYNL 081134Z AUTO 10005KT 9SM VV010 M11/M14 A2997 RMK AO1 SLP196
SPECI CYNL 081109Z AUTO ///// 9SM FEW009 OVC096 M11/M14 A2996 RMK AO1 SLP194
METAR CYNL 081100Z AUTO ///// 9SM FEW022 BKN096 M11/M14 A2996 RMK AO1 SLP193
SPECI CYNL 081029Z AUTO ///// 9SM FEW009 SCT016 M11/M13 A2996 RMK AO1 SLP189
SPECI CYNL 081022Z AUTO 10009KT 9SM FEW009 SCT012 BKN015 M11/M13 A2996 RMK AO1 SLP189
SPECI CYNL 081014Z AUTO 10007KT 9SM VV014 M10/M13 A2996 RMK AO1 SLP189
METAR CYNL 081000Z AUTO 09007KT 4SM VV015 M10/M13 A2995 RMK AO1 SLP188
SPECI CYNL 080935Z AUTO 11007KT 3SM VV014 M10/M13 A2995 RMK AO1 SLP188
SPECI CYNL 080933Z AUTO 11008KT 3SM VV015 M10/M13 A2995 RMK AO1 SLP188
SPECI CYNL 080925Z AUTO 11009KT 2 1/2SM VV015 M10/M13 A2995 RMK AO1 SLP188
SPECI CYNL 080913Z AUTO 10009KT 2 1/2SM VV014 M10/M13 A2995 RMK AO1 SLP188
SPECI CYNL 080904Z AUTO 10008KT 3SM VV014 M10/M13 A2995 RMK AO1 SLP188
METAR CYNL 080900Z AUTO 10007KT 3SM VV019 M10/M13 A2995 RMK AO1 SLP188
SPECI CYNL 080837Z AUTO 11009KT 3SM VV015 M10/M13 A2995 RMK AO1 SLP187
SPECI CYNL 080834Z AUTO 11008KT 3SM VV014 M10/M13 A2995 RMK AO1 SLP187
SPECI CYNL 080825Z AUTO 10009KT 2 1/2SM VV013 M10/M13 A2995 RMK AO1 SLP186
METAR CYNL 080800Z AUTO 10008KT 3SM VV014 M10/M13 A2994 RMK AO1 SLP185
SPECI CYNL 080752Z AUTO 10008KT 3SM VV014 M10/M13 A2994 RMK AO1 SLP185
SPECI CYNL 080751Z AUTO 10008KT 2 1/2SM VV014 M10/M13 A2994 RMK AO1 SLP185
SPECI CYNL 080750Z AUTO 10008KT 2 1/2SM VV015 M10/M13 A2994 RMK AO1 SLP185
SPECI CYNL 080743Z AUTO 10007KT 3SM VV015 M10/M13 A2995 RMK AO1 SLP186
SPECI CYNL 080741Z AUTO 10006KT 2 1/2SM VV015 M10/M13 A2995 RMK AO1 SLP186
SPECI CYNL 080723Z AUTO 10007KT 4SM VV015 M10/M13 A2994 RMK AO1 SLP185
SPECI CYNL 080713Z AUTO 10007KT 4SM VV012 M10/M13 A2994 RMK AO1 SLP185
METAR CYNL 080700Z AUTO 10008KT 9SM FEW036 OVC049 M10/M13 A2994 RMK AO1 SLP184
METAR CYNL 080600Z AUTO 11009G16KT 9SM SCT041 BKN120 M10/M13 A2993 RMK AO1 SLP181
METAR CYNL 080500Z AUTO 10012KT 9SM OVC044 M09/M13 A2993 RMK AO1 SLP181
METAR CYNL 080400Z AUTO 10010G15KT 9SM FEW010 BKN044 BKN120 M09/M13 A2993 RMK AO1 SLP182
SPECI CYNL 080343Z AUTO 10015G21KT 8SM SCT009 BKN046 M09/M13 A2992 RMK AO1 SLP182
SPECI CYNL 080336Z AUTO 10011KT 6SM FEW008 BKN011 OVC045 M09/M12 A2993 RMK AO1 SLP182
SPECI CYNL 080329Z AUTO 09010G17KT 6SM VV010 M09/M12 A2993 RMK AO1 SLP182
SPECI CYNL 080323Z AUTO 10012KT 5SM VV009 M09/M12 A2992 RMK AO1 SLP181
SPECI CYNL 080303Z AUTO 10010G16KT 4SM VV010 M08/M12 A2992 RMK AO1 SLP179
SPECI CYNL 080301Z AUTO 10011G16KT 5SM VV009 M08/M12 A2992 RMK AO1 SLP179
METAR CYNL 080300Z AUTO 10011G16KT 5SM FEW008 BKN044 M08/M12 A2992 RMK AO1 SLP179
SPECI CYNL 080256Z AUTO 09012KT 6SM FEW007 SCT044 M08/M12 A2992 RMK AO1 SLP178
METAR CYNL 080200Z AUTO 10012KT 4SM OVC040 M07/M11 A2991 RMK AO1 SLP174
METAR CYNL 080100Z AUTO 10011KT 9SM BKN046 M07/M11 A2990 RMK AO1 SLP172
METAR CYNL 080000Z AUTO 11014G21KT 9SM FEW140 M05/M11 A2989 RMK AO1 SLP169
METAR CYNL 072300Z AUTO 10013G20KT 9SM FEW012 M04/M10 A2989 RMK AO1 SLP168
SPECI CYNL 072225Z AUTO 11016KT 9SM SCT009 BKN230 M05/M10 A2988 RMK AO1 SLP166
SPECI CYNL 072222Z AUTO 10017KT 6SM VV009 M05/M10 A2989 RMK AO1 SLP166
SPECI CYNL 072217Z AUTO 10015G20KT 5SM VV013 M05/M10 A2989 RMK AO1 SLP166
METAR CYNL 072200Z AUTO 10011G19KT 9SM FEW210 M05/M11 A2989 RMK AO1 SLP167
SPECI CYNL 072121Z AUTO 09013G20KT 9SM SCT008 BKN078 M05/M10 A2989 RMK AO1 SLP168
SPECI CYNL 072120Z AUTO 09014G20KT 9SM BKN008 M05/M10 A2989 RMK AO1 SLP168
SPECI CYNL 072117Z AUTO 10011G19KT 7SM SCT007 BKN012 M05/M10 A2989 RMK AO1 SLP168
SPECI CYNL 072110Z AUTO 09013G19KT 6SM VV009 M05/M11 A2989 RMK AO1 SLP168
SPECI CYNL 072103Z AUTO 10014G20KT 6SM VV010 M05/M11 A2990 RMK AO1 SLP169
METAR CYNL 072100Z AUTO 10014G20KT 6SM SCT008 M05/M11 A2990 RMK AO1 SLP169
SPECI CYNL 072034Z AUTO 09012G19KT 6SM FEW007 SCT009 M05/M11 A2990 RMK AO1 SLP169
SPECI CYNL 072033Z AUTO 10012G19KT 6SM VV008 M05/M11 A2990 RMK AO1 SLP169
SPECI CYNL 072013Z AUTO 10013G19KT 7SM FEW006 M05/M12 A2990 RMK AO1 SLP170
METAR CYNL 072000Z AUTO 09015KT 9SM FEW024 SCT150 M05/M12 A2990 RMK AO1 SLP170
METAR CYNL 071900Z AUTO 09013G19KT 6SM FEW008 SCT041 BKN120 M05/M12 A2991 RMK AO1 SLP171
SPECI CYNL 071857Z AUTO 09015KT 6SM FEW009 SCT041 BKN120 M05/M12 A2991 RMK AO1 SLP171
METAR CYNL 071800Z AUTO 10011G19KT 9SM SCT034 M05/M13 A2991 RMK AO1 SLP173
METAR CYNL 071700Z AUTO 09014KT 9SM SCT008 M07/M13 A2993 RMK AO1 SLP180
SPECI CYNL 071655Z AUTO 09013KT 6SM SCT008 BKN100 M08/M13 A2993 RMK AO1 SLP180
SPECI CYNL 071636Z AUTO 09015KT 4SM VV008 M08/M13 A2993 RMK AO1 SLP179
SPECI CYNL 071635Z AUTO 09015KT 4SM SCT008 BKN190 M08/M13 A2993 RMK AO1 SLP179
SPECI CYNL 071633Z AUTO 09013G19KT 4SM VV007 M08/M13 A2993 RMK AO1 SLP180
SPECI CYNL 071630Z AUTO 09013G19KT 4SM SCT007 BKN190 M08/M14 A2993 RMK AO1 SLP180
SPECI CYNL 071627Z AUTO 09015KT 4SM VV007 M08/M14 A2993 RMK AO1 SLP181
SPECI CYNL 071626Z AUTO 09014KT 4SM SCT007 M08/M14 A2993 RMK AO1 SLP180
SPECI CYNL 071625Z AUTO 08014KT 4SM VV007 M09/M14 A2993 RMK AO1 SLP180
SPECI CYNL 071621Z AUTO 09014KT 5SM FEW007 M09/M14 A2993 RMK AO1 SLP180
METAR CYNL 071600Z AUTO 09013KT 9SM CLR M09/M15 A2993 RMK AO1 SLP181
METAR CYNL 071500Z AUTO 10010G15KT 9SM CLR M09/M15 A2994 RMK AO1 SLP181
METAR CYNL 071400Z AUTO 10011G16KT 9SM CLR M09/M16 A2994 RMK AO1 SLP184
METAR CYNL 071300Z AUTO 10009KT 9SM CLR M10/M16 A2994 RMK AO1 SLP185
METAR CYNL 071200Z AUTO ///// 9SM CLR M11/M16 A2995 RMK AO1 SLP187
METAR CYNL 071100Z AUTO 11010KT 9SM CLR M10/M16 A2995 RMK AO1 SLP186
METAR CYNL 071000Z AUTO 09006KT 9SM CLR M10/M15 A2995 RMK AO1 SLP187
METAR CYNL 070900Z AUTO 10008KT 9SM CLR M09/M15 A2996 RMK AO1 SLP187
METAR CYNL 070800Z AUTO 11009KT 9SM CLR M09/M15 A2997 RMK AO1 SLP189
METAR CYNL 070700Z AUTO 10010KT 9SM FEW080 M08/M15 A2998 RMK AO1 SLP193
METAR CYNL 070600Z AUTO 10009KT 9SM OVC080 M07/M15 A2999 RMK AO1 SLP195
METAR CYNL 070500Z AUTO 11011G17KT 9SM OVC082 M06/M15 A2998 RMK AO1 SLP194
METAR CYNL 070400Z AUTO 11013G20KT 9SM FEW072 OVC084 M06/M15 A2999 RMK AO1 SLP196
METAR CYNL 070300Z AUTO 10011G19KT 9SM OVC072 M06/M15 A2999 RMK AO1 SLP199
METAR CYNL 070200Z AUTO 10011KT 9SM OVC072 M05/M16 A2999 RMK AO1 SLP203
METAR CYNL 070100Z AUTO 11011G17KT 9SM OVC058 M05/M16 A3000 RMK AO1 SLP208
METAR CYNL 070000Z AUTO 10012KT 9SM FEW096 M04/M16 A3001 RMK AO1 SLP219
METAR CYNL 062300Z AUTO 11010G16KT 9SM FEW066 M04/M17 A3002 RMK AO1 SLP227
METAR CYNL 062200Z AUTO 11012KT 9SM FEW072 SCT180 M04/M17 A3002 RMK AO1 SLP226
METAR CYNL 062100Z AUTO 10010KT 9SM FEW090 M03/M16 A3002 RMK AO1 SLP226
SPECI CYNL 062017Z AUTO 10010KT 9SM FEW092 SCT200 M04/M16 A3003 RMK AO1 WSHFT (20)17 SLP231
METAR CYNL 062000Z AUTO 14010G15KT 9SM SCT090 M04/M17 A3004 RMK AO1 SLP232
METAR CYNL 061900Z AUTO 13011KT 9SM FEW080 SCT100 M04/M17 A3004 RMK AO1 SLP233
METAR CYNL 061800Z AUTO 12006KT 9SM FEW110 SCT190 M04/M17 A3005 RMK AO1 SLP236
METAR CYNL 061700Z AUTO 12006KT 9SM SCT110 M06/M18 A3006 RMK AO1 SLP239
METAR CYNL 061600Z AUTO 14007KT 9SM BKN120 M07/M20 A3006 RMK AO1 SLP240
METAR CYNL 061500Z AUTO 06005KT 9SM SCT120 M10/M21 A3006 RMK AO1 SLP241
METAR CYNL 061400Z AUTO 08004KT 9SM CLR M13/M21 A3005 RMK AO1 SLP236
METAR CYNL 061300Z AUTO ///// 9SM CLR M20/M25 A3006 RMK AO1 SLP244
METAR CYNL 061200Z AUTO 00000KT 9SM CLR M24/M28 A3006 RMK AO1 SLP243
METAR CYNL 061100Z AUTO 00000KT 9SM CLR M24/M28 A3005 RMK AO1 SLP241
METAR CYNL 061000Z AUTO 00000KT 9SM CLR M23/M26 A3004 RMK AO1 SLP235
METAR CYNL 060900Z AUTO 24003KT 9SM CLR M23/M27 A3004 RMK AO1 SLP236
METAR CYNL 060800Z AUTO 00000KT 9SM CLR M22/M27 A3004 RMK AO1 SLP234
METAR CYNL 060700Z AUTO 29002KT 9SM CLR M22/M26 A3003 RMK AO1 SLP233
METAR CYNL 060600Z AUTO 00000KT 9SM CLR M20/M25 A3003 RMK AO1 SLP232
METAR CYNL 060500Z AUTO 24004KT 9SM CLR M19/M25 A3003 RMK AO1 SLP231
METAR CYNL 060400Z AUTO 23003KT 9SM CLR M17/M23 A3001 RMK AO1 SLP225
METAR CYNL 060300Z AUTO 32002KT 9SM CLR M13/M21 A3000 RMK AO1 SLP218
METAR CYNL 060200Z AUTO 28003KT 9SM CLR M09/M20 A3000 RMK AO1 SLP213
METAR CYNL 060100Z AUTO 29005KT 9SM CLR M06/M20 A2999 RMK AO1 SLP215
METAR CYNL 060000Z AUTO 25006KT 9SM CLR M05/M19 A3000 RMK AO1 SLP222
METAR CYNL 052300Z AUTO 27007KT 9SM CLR M05/M20 A3001 RMK AO1 SLP226
METAR CYNL 052200Z AUTO 28006KT 9SM CLR M05/M20 A3001 RMK AO1 SLP229
METAR CYNL 052100Z AUTO 28009KT 9SM CLR M06/M20 A3002 RMK AO1 SLP231
METAR CYNL 052000Z AUTO 25007KT 9SM CLR M07/M20 A3003 RMK AO1 SLP236
METAR CYNL 051900Z AUTO 25007KT 9SM CLR M08/M20 A3004 RMK AO1 SLP240
METAR CYNL 051800Z AUTO 26008KT 9SM CLR M09/M21 A3005 RMK AO1 WSHFT (17)49 SLP246
SPECI CYNL 051749Z AUTO 25010KT 9SM CLR M09/M21 A3006 RMK AO1 WSHFT (17)49 SLP245
METAR CYNL 051700Z AUTO 26008KT 9SM CLR M10/M22 A3006 RMK AO1 SLP248
METAR CYNL 051600Z AUTO 26008KT 9SM CLR M12/M23 A3007 RMK AO1 SLP251
METAR CYNL 051500Z AUTO 25008KT 9SM CLR M14/M23 A3008 RMK AO1 SLP251
METAR CYNL 051400Z AUTO 23005KT 9SM CLR M20/M25 A3008 RMK AO1 SLP259
METAR CYNL 051300Z AUTO 23002KT 9SM CLR M24/M29 A3009 RMK AO1 SLP263
METAR CYNL 051200Z AUTO 22003KT 9SM CLR M26/M30 A3010 RMK AO1 SLP263
METAR CYNL 051100Z AUTO ///// 9SM CLR M26/M30 A3010 RMK AO1 SLP264
METAR CYNL 051000Z AUTO ///// 9SM CLR M25/M29 A3010 RMK AO1 SLP262
METAR CYNL 050900Z AUTO 23005KT 9SM CLR M26/M29 A3010 RMK AO1 SLP262
METAR CYNL 050800Z AUTO 26003KT 9SM CLR M26/M29 A3010 RMK AO1 SLP261
METAR CYNL 050700Z AUTO 26003KT 9SM CLR M25/M28 A3010 RMK AO1 SLP259
METAR CYNL 050600Z AUTO 26003KT 9SM CLR M23/M27 A3009 RMK AO1 SLP254
METAR CYNL 050500Z AUTO 33004KT 9SM CLR M21/M26 A3009 RMK AO1 SLP252
METAR CYNL 050400Z AUTO 33004KT 9SM CLR M18/M23 A3009 RMK AO1 SLP249
METAR CYNL 050300Z AUTO 31004KT 9SM CLR M16/M22 A3009 RMK AO1 SLP244
METAR CYNL 050200Z AUTO 30003KT 9SM CLR M13/M21 A3007 RMK AO1 SLP237
METAR CYNL 050100Z AUTO 31007KT 9SM CLR M10/M20 A3007 RMK AO1 SLP237
METAR CYNL 050000Z AUTO 32006KT 9SM CLR M09/M20 A3006 RMK AO1 SLP238
METAR CYNL 042300Z AUTO 30011KT 9SM CLR M08/M20 A3005 RMK AO1 SLP234
METAR CYNL 042200Z AUTO 34010G16KT 9SM CLR M08/M20 A3004 RMK AO1 SLP229
METAR CYNL 042100Z AUTO 33009G16KT 9SM CLR M07/M20 A3002 RMK AO1 SLP222
METAR CYNL 042000Z AUTO 28011G18KT 9SM CLR M07/M19 A3001 RMK AO1 SLP215
METAR CYNL 041900Z AUTO 31009G17KT 9SM FEW036 M07/M17 A2999 RMK AO1 SLP210
METAR CYNL 041800Z AUTO 32009KT 9SM SCT034 M07/M16 A2999 RMK AO1 SLP209
METAR CYNL 041700Z AUTO 29008KT 9SM CLR M07/M16 A2998 RMK AO1 SLP206
METAR CYNL 041600Z AUTO 30007KT 9SM CLR M07/M15 A2997 RMK AO1 SLP203
METAR CYNL 041500Z AUTO 29007KT 9SM FEW007 SCT012 M08/M13 A2997 RMK AO1 SLP205
SPECI CYNL 041450Z AUTO 30006KT 9SM FEW007 SCT013 M08/M13 A2997 RMK AO1 SLP204
SPECI CYNL 041446Z AUTO 32003KT 9SM FEW010 SCT013 M08/M13 A2997 RMK AO1 SLP204
SPECI CYNL 041445Z AUTO 32004KT 9SM VV010 M09/M13 A2997 RMK AO1 SLP204
SPECI CYNL 041440Z AUTO 32003KT 9SM FEW009 M09/M13 A2998 RMK AO1 SLP204
METAR CYNL 041400Z AUTO 00000KT 9SM CLR M12/M18 A2998 RMK AO1 SLP209
METAR CYNL 041300Z AUTO 00000KT 9SM CLR M17/M21 A2999 RMK AO1 SLP216
METAR CYNL 041200Z AUTO 34003KT 8SM CLR M17/M20 A2999 RMK AO1 SLP213
SPECI CYNL 041102Z AUTO 00000KT 5SM FEW007 M16/M19 A3000 RMK AO1 SLP215
METAR CYNL 041100Z AUTO 00000KT 5SM VV007 M16/M19 A3000 RMK AO1 SLP215
SPECI CYNL 041055Z AUTO 00000KT 6SM FEW007 M16/M19 A3000 RMK AO1 SLP214
METAR CYNL 041000Z AUTO 00000KT 9SM CLR M15/M19 A3000 RMK AO1 SLP213
METAR CYNL 040900Z AUTO 00000KT 9SM CLR M15/M19 A3001 RMK AO1 SLP217
METAR CYNL 040800Z AUTO 00000KT 9SM CLR M14/M20 A3001 RMK AO1 SLP219
METAR CYNL 040700Z AUTO 03003KT 9SM CLR M14/M20 A3002 RMK AO1 SLP221
METAR CYNL 040600Z AUTO 04004KT 9SM CLR M14/M20 A3003 RMK AO1 SLP227
METAR CYNL 040500Z AUTO 06004KT 9SM CLR M14/M20 A3004 RMK AO1 SLP232
METAR CYNL 040400Z AUTO 04005KT 9SM CLR M14/M20 A3004 RMK AO1 SLP233
METAR CYNL 040300Z AUTO 03005KT 9SM CLR M13/M20 A3005 RMK AO1 SLP236
METAR CYNL 040200Z AUTO 01003KT 9SM CLR M11/M19 A3006 RMK AO1 SLP238
METAR CYNL 040100Z AUTO 00000KT 9SM CLR M09/M19 A3005 RMK AO1 SLP238
METAR CYNL 040000Z AUTO 20003KT 9SM CLR M08/M19 A3005 RMK AO1 SLP240
METAR CYNL 032300Z AUTO 29004KT 9SM CLR M08/M19 A3006 RMK AO1 SLP245
METAR CYNL 032200Z AUTO 23007KT 180V280 9SM SCT039 M08/M18 A3007 RMK AO1 SLP245
METAR CYNL 032100Z AUTO 19006KT 9SM SCT037 M08/M18 A3007 RMK AO1 SLP247
METAR CYNL 032000Z AUTO 28004KT 9SM BKN035 M08/M18 A3007 RMK AO1 SLP245
METAR CYNL 031900Z AUTO 29006KT 9SM SCT033 M10/M19 A3008 RMK AO1 SLP248
METAR CYNL 031800Z AUTO 31005KT 9SM FEW029 M11/M19 A3007 RMK AO1 SLP248
SPECI CYNL 031752Z AUTO 29009KT 9SM SCT029 M11/M19 A3007 RMK AO1 SLP245
SPECI CYNL 031744Z AUTO 29006KT 9SM BKN028 M11/M19 A3007 RMK AO1 SLP245
METAR CYNL 031700Z AUTO 30007KT 9SM CLR M12/M19 A3007 RMK AO1 SLP245
METAR CYNL 031600Z AUTO 28004KT 9SM CLR M12/M18 A3007 RMK AO1 SLP246
METAR CYNL 031500Z AUTO 29004KT 9SM CLR M15/M19 A3006 RMK AO1 SLP247
METAR CYNL 031400Z AUTO 27002KT 9SM CLR M19/M22 A3006 RMK AO1 SLP247
METAR CYNL 031300Z AUTO 27003KT 9SM CLR M21/M24 A3004 RMK AO1 SLP243
METAR CYNL 031200Z AUTO ///// 9SM CLR M22/M25 A3003 RMK AO1 SLP238
METAR CYNL 031100Z AUTO 29003KT 9SM CLR M21/M24 A3001 RMK AO1 PRESRR SLP230
METAR CYNL 031000Z AUTO ///// 9SM CLR M21/M25 A2999 RMK AO1 SLP222
METAR CYNL 030900Z AUTO 27004KT 9SM CLR M20/M23 A2998 RMK AO1 SLP216
METAR CYNL 030800Z AUTO 29005KT 9SM CLR M20/M23 A2996 RMK AO1 SLP209
METAR CYNL 030700Z AUTO 29006KT 9SM CLR M20/M22 A2995 RMK AO1 SLP205
METAR CYNL 030600Z AUTO 29005KT 9SM CLR M18/M21 A2994 RMK AO1 SLP202
METAR CYNL 030500Z AUTO 29005KT 9SM CLR M17/M20 A2993 RMK AO1 SLP201
METAR CYNL 030400Z AUTO 28005KT 9SM CLR M17/M20 A2993 RMK AO1 SLP200
METAR CYNL 030300Z AUTO 29004KT 9SM CLR M15/M20 A2992 RMK AO1 SLP194
METAR CYNL 030200Z AUTO 30004KT 9SM CLR M14/M19 A2991 RMK AO1 SLP189
METAR CYNL 030100Z AUTO 32006KT 9SM CLR M13/M20 A2990 RMK AO1 SLP185
METAR CYNL 030000Z AUTO 33013G19KT 9SM SCT032 M11/M19 A2988 RMK AO1 PRESRR SLP177
SPECI CYNL 022329Z AUTO ///// 9SM OVC030 M12/M19 A2987 RMK AO1 SLP175
SPECI CYNL 022318Z AUTO 33009KT 9SM BKN029 M11/M19 A2987 RMK AO1 SLP174
METAR CYNL 022300Z AUTO ///// 9SM BKN030 M11/M19 A2986 RMK AO1 SLP171
SPECI CYNL 022224Z AUTO 31011G20KT 9SM BKN030 M11/M19 A2985 RMK AO1 SLP166
SPECI CYNL 022213Z AUTO 31010G18KT 9SM BKN029 M10/M19 A2984 RMK AO1 SLP164
METAR CYNL 022200Z AUTO 30012G19KT 9SM FEW013 SCT029 M11/M19 A2984 RMK AO1 SLP165
METAR CYNL 022100Z AUTO 31010G24KT 9SM FEW030 M11/M19 A2983 RMK AO1 PRESRR SLP158
METAR CYNL 022000Z AUTO 32013G22KT 9SM FEW028 M11/M20 A2980 RMK AO1 SLP149
METAR CYNL 021900Z AUTO 31013G22KT 9SM FEW007 SCT026 M12/M20 A2978 RMK AO1 SLP142
SPECI CYNL 021852Z AUTO ///// 5SM FEW007 SCT016 M12/M20 A2978 RMK AO1 SLP140
SPECI CYNL 021849Z AUTO 30013G22KT 9SM FEW007 SCT012 BKN025 M12/M20 A2978 RMK AO1 SLP140
SPECI CYNL 021844Z AUTO ///// 4SM FEW007 SCT012 BKN018 M12/M20 A2978 RMK AO1 SLP141
SPECI CYNL 021842Z AUTO ///// 4SM VV009 M12/M20 A2978 RMK AO1 SLP140
SPECI CYNL 021838Z AUTO ///// 5SM FEW008 BKN017 M12/M20 A2978 RMK AO1 SLP139
SPECI CYNL 021836Z AUTO ///// 7SM FEW008 SCT016 BKN025 M12/M20 A2978 RMK AO1 SLP140
SPECI CYNL 021834Z AUTO ///// 5SM SCT016 BKN025 M12/M19 A2978 RMK AO1 SLP140
SPECI CYNL 021827Z AUTO ///// 4SM VV015 M13/M20 A2977 RMK AO1 SLP140
SPECI CYNL 021826Z AUTO ///// 5SM VV014 M13/M19 A2977 RMK AO1 SLP139
SPECI CYNL 021815Z AUTO ///// 7SM FEW008 SCT017 BKN160 M12/M19 A2977 RMK AO1 SLP137
SPECI CYNL 021814Z AUTO ///// 7SM FEW008 BKN017 M12/M19 A2977 RMK AO1 SLP137
SPECI CYNL 021813Z AUTO ///// 5SM SCT017 BKN025 M12/M19 A2977 RMK AO1 SLP137
SPECI CYNL 021810Z AUTO ///// 9SM SCT017 BKN170 M13/M20 A2977 RMK AO1 SLP136
SPECI CYNL 021808Z AUTO ///// 8SM SCT016 BKN025 M12/M19 A2977 RMK AO1 SLP136
METAR CYNL 021800Z AUTO ///// 4SM VV016 M13/M20 A2976 RMK AO1 SLP136
SPECI CYNL 021753Z AUTO ///// 4SM SCT017 BKN024 M13/M20 A2976 RMK AO1 SLP135
SPECI CYNL 021750Z AUTO ///// 4SM SCT015 BKN025 M13/M20 A2976 RMK AO1 SLP135
SPECI CYNL 021741Z AUTO ///// 7SM FEW008 SCT019 BKN024 M13/M20 A2976 RMK AO1 SLP135
SPECI CYNL 021738Z AUTO ///// 9SM FEW014 SCT019 BKN024 M13/M20 A2976 RMK AO1 SLP134
SPECI CYNL 021729Z AUTO ///// 9SM FEW008 SCT014 BKN026 M13/M20 A2976 RMK AO1 SLP134
SPECI CYNL 021728Z AUTO ///// 8SM FEW008 SCT014 BKN019 M13/M20 A2976 RMK AO1 SLP134
SPECI CYNL 021725Z AUTO ///// 4SM VV014 M14/M20 A2976 RMK AO1 SLP134
SPECI CYNL 021711Z AUTO ///// 5SM VV019 M14/M20 A2975 RMK AO1 SLP133
SPECI CYNL 021706Z AUTO ///// 7SM FEW008 BKN025 M14/M20 A2975 RMK AO1 SLP132
SPECI CYNL 021701Z AUTO ///// 6SM FEW010 SCT016 BKN025 M14/M20 A2975 RMK AO1 SLP131
METAR CYNL 021700Z AUTO ///// 5SM FEW010 SCT016 BKN024 M14/M20 A2975 RMK AO1 SLP131
SPECI CYNL 021638Z AUTO ///// 5SM VV015 M14/M20 A2974 RMK AO1 SLP129
SPECI CYNL 021636Z AUTO ///// 7SM VV014 M14/M20 A2974 RMK AO1 SLP128
SPECI CYNL 021631Z AUTO ///// 5SM FEW007 BKN016 BKN022 M14/M20 A2974 RMK AO1 SLP127
SPECI CYNL 021617Z AUTO ///// 3SM SCT016 BKN023 BKN200 M14/M20 A2974 RMK AO1 SLP126
SPECI CYNL 021615Z AUTO ///// 2 1/2SM SCT016 BKN023 M14/M20 A2974 RMK AO1 SLP126
SPECI CYNL 021608Z AUTO ///// 5SM FEW009 BKN016 BKN022 M14/M20 A2974 RMK AO1 SLP127
SPECI CYNL 021605Z AUTO ///// 4SM FEW011 BKN016 OVC022 M14/M20 A2974 RMK AO1 SLP127
SPECI CYNL 021604Z AUTO ///// 3SM VV014 M14/M20 A2974 RMK AO1 SLP127
METAR CYNL 021600Z AUTO ///// 6SM VV015 M14/M20 A2974 RMK AO1 SLP127
SPECI CYNL 021554Z AUTO ///// 3SM VV019 M14/M20 A2974 RMK AO1 SLP126
SPECI CYNL 021552Z AUTO ///// 2 1/2SM VV018 M14/M20 A2974 RMK AO1 SLP126
SPECI CYNL 021549Z AUTO ///// 3SM VV016 M14/M20 A2974 RMK AO1 SLP126
SPECI CYNL 021547Z AUTO ///// 2 1/2SM VV016 M14/M20 A2974 RMK AO1 SLP126
SPECI CYNL 021543Z AUTO ///// 4SM VV015 M14/M20 A2974 RMK AO1 SLP127
SPECI CYNL 021541Z AUTO ///// 3SM VV014 M15/M20 A2974 RMK AO1 SLP127
SPECI CYNL 021539Z AUTO ///// 2SM VV013 M15/M20 A2974 RMK AO1 SLP127
SPECI CYNL 021538Z AUTO ///// 1 1/2SM VV014 M15/M19 A2974 RMK AO1 SLP127
SPECI CYNL 021535Z AUTO ///// 1 1/4SM VV013 M15/M20 A2973 RMK AO1 SLP126
SPECI CYNL 021532Z AUTO ///// 1 1/2SM VV014 M15/M20 A2974 RMK AO1 SLP126
SPECI CYNL 021531Z AUTO ///// 1 1/2SM VV015 M15/M20 A2974 RMK AO1 SLP126
SPECI CYNL 021530Z AUTO ///// 1 1/2SM VV014 M15/M20 A2974 RMK AO1 SLP126
SPECI CYNL 021529Z AUTO ///// 2SM VV014 M15/M20 A2974 RMK AO1 SLP126
SPECI CYNL 021524Z AUTO 29013G20KT 2 1/2SM VV016 M15/M20 A2973 RMK AO1 SLP126
SPECI CYNL 021522Z AUTO ///// 3SM VV016 M15/M20 A2974 RMK AO1 SLP126
SPECI CYNL 021518Z AUTO 30013G20KT 2SM VV015 M15/M20 A2974 RMK AO1 SLP127
SPECI CYNL 021516Z AUTO 29014G20KT 1 1/2SM VV014 M15/M20 A2974 RMK AO1 SLP126
SPECI CYNL 021513Z AUTO ///// 1 3/4SM VV015 M15/M20 A2973 RMK AO1 SLP126
SPECI CYNL 021512Z AUTO ///// 1 3/4SM VV014 M15/M20 A2973 RMK AO1 SLP126
SPECI CYNL 021506Z AUTO ///// 1 3/4SM VV015 M15/M20 A2974 RMK AO1 SLP126
SPECI CYNL 021505Z AUTO ///// 2SM VV015 M15/M20 A2974 RMK AO1 SLP126
SPECI CYNL 021504Z AUTO ///// 2 1/2SM VV014 M15/M20 A2974 RMK AO1 SLP126
SPECI CYNL 021502Z AUTO ///// 3SM VV014 M15/M20 A2973 RMK AO1 SLP125
METAR CYNL 021500Z AUTO ///// 2 1/2SM VV013 M15/M19 A2973 RMK AO1 SLP125
SPECI CYNL 021456Z AUTO ///// 2SM VV014 M15/M20 A2974 RMK AO1 SLP124
SPECI CYNL 021454Z AUTO ///// 1 3/4SM VV014 M15/M20 A2974 RMK AO1 SLP124
SPECI CYNL 021451Z AUTO ///// 1 3/4SM VV016 M15/M20 A2973 RMK AO1 SLP124
SPECI CYNL 021449Z AUTO ///// 2 1/2SM VV016 M15/M20 A2974 RMK AO1 SLP124
SPECI CYNL 021429Z AUTO ///// 3SM VV016 M15/M20 A2973 RMK AO1 SLP124
SPECI CYNL 021427Z AUTO ///// 2 1/2SM VV016 M15/M19 A2974 RMK AO1 SLP124
SPECI CYNL 021420Z AUTO ///// 3SM VV017 M15/M20 A2974 RMK AO1 SLP125
SPECI CYNL 021419Z AUTO ///// 2 1/2SM VV018 M15/M20 A2974 RMK AO1 SLP125
SPECI CYNL 021416Z AUTO ///// 5SM FEW015 SCT018 BKN022 M15/M20 A2974 RMK AO1 SLP125
SPECI CYNL 021411Z AUTO ///// 8SM FEW009 SCT021 M15/M20 A2974 RMK AO1 SLP124
SPECI CYNL 021409Z AUTO ///// 8SM FEW009 BKN021 M15/M20 A2974 RMK AO1 SLP125
SPECI CYNL 021408Z AUTO ///// 6SM FEW008 SCT021 BKN026 M15/M20 A2974 RMK AO1 SLP125
METAR CYNL 021400Z AUTO ///// 5SM FEW007 SCT009 BKN020 M15/M20 A2973 RMK AO1 SLP124
SPECI CYNL 021356Z AUTO ///// 7SM FEW008 SCT010 M15/M20 A2974 RMK AO1 SLP124
SPECI CYNL 021351Z AUTO ///// 7SM SCT008 BKN020 M15/M20 A2974 RMK AO1 SLP124
SPECI CYNL 021347Z AUTO ///// 5SM SCT008 BKN011 M15/M20 A2974 RMK AO1 SLP124
SPECI CYNL 021345Z AUTO ///// 5SM VV009 M15/M19 A2974 RMK AO1 SLP124
SPECI CYNL 021338Z AUTO ///// 5SM FEW007 SCT009 BKN021 M15/M19 A2974 RMK AO1 SLP124
SPECI CYNL 021336Z AUTO ///// 4SM VV008 M15/M19 A2974 RMK AO1 SLP124
SPECI CYNL 021331Z AUTO ///// 4SM FEW007 SCT009 M15/M19 A2974 RMK AO1 SLP124
SPECI CYNL 021328Z AUTO ///// 4SM VV009 M15/M19 A2974 RMK AO1 SLP124
SPECI CYNL 021314Z AUTO ///// 6SM FEW007 SCT011 M16/M20 A2974 RMK AO1 SLP125
SPECI CYNL 021313Z AUTO ///// 5SM FEW007 SCT012 BKN016 M16/M20 A2974 RMK AO1 SLP125
SPECI CYNL 021307Z AUTO ///// 4SM FEW007 BKN011 M16/M20 A2973 RMK AO1 SLP124
SPECI CYNL 021303Z AUTO ///// 3SM VV009 M16/M20 A2974 RMK AO1 SLP124
METAR CYNL 021300Z AUTO ///// 3SM VV010 M16/M19 A2974 RMK AO1 SLP124
SPECI CYNL 021236Z AUTO ///// 3SM VV011 M15/M19 A2973 RMK AO1 SLP123
SPECI CYNL 021233Z AUTO ///// 2 1/2SM VV012 M15/M19 A2973 RMK AO1 SLP123
SPECI CYNL 021231Z AUTO ///// 3SM VV013 M15/M19 A2973 RMK AO1 SLP122
SPECI CYNL 021228Z AUTO ///// 2 1/2SM VV014 M15/M19 A2973 RMK AO1 SLP122
SPECI CYNL 021226Z AUTO ///// 3SM VV014 M15/M19 A2973 RMK AO1 SLP122
SPECI CYNL 021225Z AUTO ///// 2 1/2SM VV014 M15/M19 A2973 RMK AO1 SLP122
SPECI CYNL 021217Z AUTO ///// 2 1/2SM VV019 M15/M19 A2973 RMK AO1 SLP122
METAR CYNL 021200Z AUTO ///// 6SM FEW007 M16/M20 A2973 RMK AO1 SLP121
SPECI CYNL 021146Z AUTO ///// 5SM FEW007 SCT010 M16/M19 A2973 RMK AO1 SLP120
SPECI CYNL 021142Z AUTO ///// 4SM VV009 M16/M20 A2973 RMK AO1 SLP121
SPECI CYNL 021139Z AUTO ///// 5SM FEW009 M15/M20 A2973 RMK AO1 SLP121
METAR CYNL 021100Z AUTO ///// 9SM CLR M15/M20 A2974 RMK AO1 SLP122
METAR CYNL 021000Z AUTO ///// 9SM CLR M14/M19 A2974 RMK AO1 SLP122
METAR CYNL 020900Z AUTO ///// 9SM CLR M14/M19 A2975 RMK AO1 SLP122
METAR CYNL 020800Z AUTO ///// 9SM CLR M13/M19 A2976 RMK AO1 SLP124
METAR CYNL 020700Z AUTO ///// 9SM CLR M12/M16 A2976 RMK AO1 SLP124
SPECI CYNL 020629Z AUTO ///// 9SM FEW007 SCT011 M12/M15 A2977 RMK AO1 SLP127
SPECI CYNL 020622Z AUTO ///// 7SM FEW008 BKN011 BKN015 M12/M15 A2977 RMK AO1 SLP128
SPECI CYNL 020619Z AUTO ///// 5SM VV009 M11/M15 A2978 RMK AO1 SLP128
SPECI CYNL 020618Z AUTO ///// 5SM VV010 M11/M15 A2978 RMK AO1 SLP128
SPECI CYNL 020615Z AUTO ///// 3SM VV009 M11/M14 A2978 RMK AO1 SLP128
SPECI CYNL 020614Z AUTO ///// 2 1/2SM VV009 M11/M14 A2978 RMK AO1 SLP128
SPECI CYNL 020612Z AUTO ///// 2SM VV010 M11/M14 A2978 RMK AO1 SLP128
SPECI CYNL 020609Z AUTO ///// 1 1/2SM VV011 M11/M14 A2978 RMK AO1 SLP129
SPECI CYNL 020606Z AUTO ///// 1SM VV011 M11/M14 A2978 RMK AO1 SLP129
SPECI CYNL 020603Z AUTO ///// 3/4SM VV012 M11/M14 A2978 RMK AO1 SLP129
SPECI CYNL 020601Z AUTO ///// 5/8SM VV012 M11/M14 A2978 RMK AO1 SLP129
METAR CYNL 020600Z AUTO ///// 3/4SM VV013 M11/M14 A2978 RMK AO1 SLP130
SPECI CYNL 020555Z AUTO ///// 1 1/4SM VV014 M11/M14 A2978 RMK AO1 SLP131
SPECI CYNL 020553Z AUTO ///// 1 3/4SM VV014 M11/M14 A2978 RMK AO1 SLP131
SPECI CYNL 020552Z AUTO 30007KT 2SM VV013 M11/M14 A2979 RMK AO1 SLP131
SPECI CYNL 020547Z AUTO 31006KT 1 3/4SM VV013 M11/M14 A2979 RMK AO1 SLP132
SPECI CYNL 020543Z AUTO ///// 2SM VV014 M11/M14 A2979 RMK AO1 SLP132
SPECI CYNL 020542Z AUTO ///// 1 1/2SM VV015 M11/M14 A2979 RMK AO1 SLP132
SPECI CYNL 020541Z AUTO ///// 1SM VV016 M11/M14 A2979 RMK AO1 SLP133
SPECI CYNL 020540Z AUTO ///// 3/4SM VV018 M11/M14 A2979 RMK AO1 SLP133
SPECI CYNL 020538Z AUTO ///// 1 3/4SM VV020 M11/M15 A2979 RMK AO1 SLP133
SPECI CYNL 020537Z AUTO ///// 2 1/2SM VV022 M11/M15 A2979 RMK AO1 SLP133
SPECI CYNL 020533Z AUTO ///// 5SM FEW013 BKN022 M11/M15 A2979 RMK AO1 SLP133
SPECI CYNL 020523Z AUTO ///// 9SM SCT012 BKN025 M11/M15 A2980 RMK AO1 SLP135
SPECI CYNL 020521Z AUTO ///// 8SM SCT012 BKN017 M11/M15 A2980 RMK AO1 SLP134
SPECI CYNL 020519Z AUTO ///// 4SM VV014 M11/M15 A2979 RMK AO1 SLP134
SPECI CYNL 020517Z AUTO ///// 3SM VV015 M11/M15 A2980 RMK AO1 SLP134
SPECI CYNL 020516Z AUTO ///// 2 1/2SM VV016 M11/M15 A2980 RMK AO1 SLP134
SPECI CYNL 020515Z AUTO ///// 3SM VV016 M11/M15 A2980 RMK AO1 SLP134
METAR CYNL 020500Z AUTO ///// 7SM FEW012 SCT031 M11/M15 A2980 RMK AO1 SLP134
SPECI CYNL 020415Z AUTO 33010G15KT 9SM SCT013 BKN031 M10/M14 A2979 RMK AO1 SLP133
SPECI CYNL 020412Z AUTO 31006KT 7SM SCT013 BKN024 M10/M14 A2979 RMK AO1 SLP132
SPECI CYNL 020411Z AUTO 31008KT 7SM SCT013 BKN026 M10/M14 A2979 RMK AO1 SLP133
SPECI CYNL 020410Z AUTO 32009KT 8SM SCT013 BKN023 M10/M14 A2979 RMK AO1 SLP133
SPECI CYNL 020409Z AUTO 32008KT 9SM SCT013 BKN026 M10/M14 A2979 RMK AO1 SLP133
METAR CYNL 020400Z AUTO 33007KT 9SM FEW006 SCT020 M10/M14 A2980 RMK AO1 SLP132
SPECI CYNL 020342Z AUTO 33010G18KT 6SM FEW006 SCT013 M10/M13 A2980 RMK AO1 SLP133
SPECI CYNL 020340Z AUTO ///// 3SM VV009 M10/M13 A2980 RMK AO1 SLP133
SPECI CYNL 020339Z AUTO ///// 2SM VV011 M10/M13 A2980 RMK AO1 SLP134
SPECI CYNL 020338Z AUTO 33011G18KT 1 3/4SM VV012 M10/M13 A2980 RMK AO1 SLP134